<?xml version="1.0" encoding="utf-8"?>
<gpx xmlns:xsi="http://www.w3.org/2001/XMLSchema-instance" xmlns:xsd="http://www.w3.org/2001/XMLSchema" version="1.1" creator="Shapelink.com" xmlns="http://www.topografix.com/GPX/1/1" xmlns:gpxtpx="http://www.garmin.com/xmlschemas/TrackPointExtension/v1">
  <metadata>
    <name>Cykling 28.15 km, 2012-07-25</name>
    <desc></desc>
    <author><name>Alexander Engvall</name></author> 
    <time>2012-07-25T16:58:38Z</time>
  </metadata>
  <trk>
    <name>Cykling 28.15 km, 2012-07-25</name>
    <trkseg>
      <trkpt lat="62.815826" lon="14.4047747">
        <ele>343.6</ele>
        <time>2012-07-25T16:58:38Z</time>
      </trkpt>
      <trkpt lat="62.815758" lon="14.4051372">
        <ele>343.4</ele>
        <time>2012-07-25T16:58:42Z</time>
      </trkpt>
      <trkpt lat="62.8156694" lon="14.4054543">
        <ele>342.2</ele>
        <time>2012-07-25T16:58:44Z</time>
      </trkpt>
      <trkpt lat="62.8155071" lon="14.4062477">
        <ele>338.2</ele>
        <time>2012-07-25T16:58:48Z</time>
      </trkpt>
      <trkpt lat="62.8153599" lon="14.4071173">
        <ele>333.2</ele>
        <time>2012-07-25T16:58:52Z</time>
      </trkpt>
      <trkpt lat="62.8152272" lon="14.4080456">
        <ele>332.8</ele>
        <time>2012-07-25T16:58:56Z</time>
      </trkpt>
      <trkpt lat="62.8150935" lon="14.4089198">
        <ele>331.2</ele>
        <time>2012-07-25T16:59:00Z</time>
      </trkpt>
      <trkpt lat="62.81496" lon="14.409817">
        <ele>335.2</ele>
        <time>2012-07-25T16:59:04Z</time>
      </trkpt>
      <trkpt lat="62.8148052" lon="14.4107173">
        <ele>337.2</ele>
        <time>2012-07-25T16:59:08Z</time>
      </trkpt>
      <trkpt lat="62.8146318" lon="14.4116263">
        <ele>337.6</ele>
        <time>2012-07-25T16:59:12Z</time>
      </trkpt>
      <trkpt lat="62.8144601" lon="14.4125254">
        <ele>337.6</ele>
        <time>2012-07-25T16:59:16Z</time>
      </trkpt>
      <trkpt lat="62.8142804" lon="14.4134498">
        <ele>337</ele>
        <time>2012-07-25T16:59:20Z</time>
      </trkpt>
      <trkpt lat="62.8141069" lon="14.4143477">
        <ele>339.6</ele>
        <time>2012-07-25T16:59:24Z</time>
      </trkpt>
      <trkpt lat="62.8139501" lon="14.4151405">
        <ele>342.6</ele>
        <time>2012-07-25T16:59:28Z</time>
      </trkpt>
      <trkpt lat="62.8138089" lon="14.4158551">
        <ele>345.4</ele>
        <time>2012-07-25T16:59:32Z</time>
      </trkpt>
      <trkpt lat="62.8136293" lon="14.4167486">
        <ele>344.2</ele>
        <time>2012-07-25T16:59:37Z</time>
      </trkpt>
      <trkpt lat="62.813451" lon="14.4176449">
        <ele>343.2</ele>
        <time>2012-07-25T16:59:42Z</time>
      </trkpt>
      <trkpt lat="62.8133075" lon="14.4183871">
        <ele>342.6</ele>
        <time>2012-07-25T16:59:46Z</time>
      </trkpt>
      <trkpt lat="62.8131614" lon="14.4191299">
        <ele>341.8</ele>
        <time>2012-07-25T16:59:50Z</time>
      </trkpt>
      <trkpt lat="62.8129837" lon="14.42002">
        <ele>341.4</ele>
        <time>2012-07-25T16:59:55Z</time>
      </trkpt>
      <trkpt lat="62.8128374" lon="14.4207379">
        <ele>342.2</ele>
        <time>2012-07-25T16:59:59Z</time>
      </trkpt>
      <trkpt lat="62.8126872" lon="14.4214935">
        <ele>343</ele>
        <time>2012-07-25T17:00:03Z</time>
      </trkpt>
      <trkpt lat="62.8125356" lon="14.4222572">
        <ele>343.2</ele>
        <time>2012-07-25T17:00:07Z</time>
      </trkpt>
      <trkpt lat="62.8123895" lon="14.4230123">
        <ele>342.8</ele>
        <time>2012-07-25T17:00:11Z</time>
      </trkpt>
      <trkpt lat="62.812233" lon="14.4238003">
        <ele>342</ele>
        <time>2012-07-25T17:00:15Z</time>
      </trkpt>
      <trkpt lat="62.8120654" lon="14.4246487">
        <ele>339.4</ele>
        <time>2012-07-25T17:00:19Z</time>
      </trkpt>
      <trkpt lat="62.8118861" lon="14.4255594">
        <ele>337.2</ele>
        <time>2012-07-25T17:00:23Z</time>
      </trkpt>
      <trkpt lat="62.8117415" lon="14.4262969">
        <ele>335</ele>
        <time>2012-07-25T17:00:26Z</time>
      </trkpt>
      <trkpt lat="62.8115578" lon="14.4272615">
        <ele>332.8</ele>
        <time>2012-07-25T17:00:30Z</time>
      </trkpt>
      <trkpt lat="62.8113763" lon="14.4282282">
        <ele>329.8</ele>
        <time>2012-07-25T17:00:34Z</time>
      </trkpt>
      <trkpt lat="62.8112396" lon="14.4289768">
        <ele>327.6</ele>
        <time>2012-07-25T17:00:37Z</time>
      </trkpt>
      <trkpt lat="62.8110986" lon="14.4297125">
        <ele>325.8</ele>
        <time>2012-07-25T17:00:40Z</time>
      </trkpt>
      <trkpt lat="62.8109273" lon="14.4306723">
        <ele>324.6</ele>
        <time>2012-07-25T17:00:44Z</time>
      </trkpt>
      <trkpt lat="62.810819" lon="14.4314281">
        <ele>323</ele>
        <time>2012-07-25T17:00:47Z</time>
      </trkpt>
      <trkpt lat="62.8106891" lon="14.4324313">
        <ele>321.6</ele>
        <time>2012-07-25T17:00:51Z</time>
      </trkpt>
      <trkpt lat="62.8105684" lon="14.4333795">
        <ele>321.2</ele>
        <time>2012-07-25T17:00:55Z</time>
      </trkpt>
      <trkpt lat="62.8103925" lon="14.4342543">
        <ele>318.4</ele>
        <time>2012-07-25T17:00:59Z</time>
      </trkpt>
      <trkpt lat="62.810159" lon="14.4350493">
        <ele>316.4</ele>
        <time>2012-07-25T17:01:03Z</time>
      </trkpt>
      <trkpt lat="62.8098908" lon="14.4358096">
        <ele>313</ele>
        <time>2012-07-25T17:01:07Z</time>
      </trkpt>
      <trkpt lat="62.8096059" lon="14.4365325">
        <ele>311</ele>
        <time>2012-07-25T17:01:11Z</time>
      </trkpt>
      <trkpt lat="62.8093467" lon="14.4371782">
        <ele>309.6</ele>
        <time>2012-07-25T17:01:15Z</time>
      </trkpt>
      <trkpt lat="62.8092305" lon="14.4374207">
        <ele>309.6</ele>
        <time>2012-07-25T17:01:17Z</time>
      </trkpt>
      <trkpt lat="62.8091814" lon="14.4378161">
        <ele>309.2</ele>
        <time>2012-07-25T17:01:20Z</time>
      </trkpt>
      <trkpt lat="62.8093877" lon="14.4383438">
        <ele>307.4</ele>
        <time>2012-07-25T17:01:24Z</time>
      </trkpt>
      <trkpt lat="62.8094606" lon="14.4384769">
        <ele>306.6</ele>
        <time>2012-07-25T17:01:25Z</time>
      </trkpt>
      <trkpt lat="62.8097626" lon="14.4390561">
        <ele>305.4</ele>
        <time>2012-07-25T17:01:29Z</time>
      </trkpt>
      <trkpt lat="62.8099747" lon="14.4397709">
        <ele>303</ele>
        <time>2012-07-25T17:01:33Z</time>
      </trkpt>
      <trkpt lat="62.8101646" lon="14.4405096">
        <ele>302.2</ele>
        <time>2012-07-25T17:01:37Z</time>
      </trkpt>
      <trkpt lat="62.8102153" lon="14.4406884">
        <ele>302.2</ele>
        <time>2012-07-25T17:01:38Z</time>
      </trkpt>
      <trkpt lat="62.8103833" lon="14.4411893">
        <ele>301.6</ele>
        <time>2012-07-25T17:01:41Z</time>
      </trkpt>
      <trkpt lat="62.8106262" lon="14.4417908">
        <ele>300.8</ele>
        <time>2012-07-25T17:01:45Z</time>
      </trkpt>
      <trkpt lat="62.8109484" lon="14.4424533">
        <ele>301</ele>
        <time>2012-07-25T17:01:50Z</time>
      </trkpt>
      <trkpt lat="62.8112715" lon="14.44306">
        <ele>301.6</ele>
        <time>2012-07-25T17:01:55Z</time>
      </trkpt>
      <trkpt lat="62.8115937" lon="14.44364">
        <ele>301.6</ele>
        <time>2012-07-25T17:02:00Z</time>
      </trkpt>
      <trkpt lat="62.811899" lon="14.4442015">
        <ele>303</ele>
        <time>2012-07-25T17:02:05Z</time>
      </trkpt>
      <trkpt lat="62.812198" lon="14.4447409">
        <ele>303.8</ele>
        <time>2012-07-25T17:02:10Z</time>
      </trkpt>
      <trkpt lat="62.8125232" lon="14.4453297">
        <ele>305.4</ele>
        <time>2012-07-25T17:02:16Z</time>
      </trkpt>
      <trkpt lat="62.8128355" lon="14.4458886">
        <ele>307.2</ele>
        <time>2012-07-25T17:02:22Z</time>
      </trkpt>
      <trkpt lat="62.8131493" lon="14.4464493">
        <ele>309</ele>
        <time>2012-07-25T17:02:29Z</time>
      </trkpt>
      <trkpt lat="62.8134525" lon="14.4469925">
        <ele>309.8</ele>
        <time>2012-07-25T17:02:36Z</time>
      </trkpt>
      <trkpt lat="62.8136354" lon="14.447276">
        <ele>311.2</ele>
        <time>2012-07-25T17:02:40Z</time>
      </trkpt>
      <trkpt lat="62.8137802" lon="14.4473567">
        <ele>312.4</ele>
        <time>2012-07-25T17:02:43Z</time>
      </trkpt>
      <trkpt lat="62.8139836" lon="14.4472771">
        <ele>313.6</ele>
        <time>2012-07-25T17:02:47Z</time>
      </trkpt>
      <trkpt lat="62.8140322" lon="14.4472316">
        <ele>314.2</ele>
        <time>2012-07-25T17:02:48Z</time>
      </trkpt>
      <trkpt lat="62.8141243" lon="14.4471183">
        <ele>315</ele>
        <time>2012-07-25T17:02:50Z</time>
      </trkpt>
      <trkpt lat="62.8144505" lon="14.4467268">
        <ele>314.8</ele>
        <time>2012-07-25T17:02:57Z</time>
      </trkpt>
      <trkpt lat="62.8148069" lon="14.4462964">
        <ele>316.6</ele>
        <time>2012-07-25T17:03:05Z</time>
      </trkpt>
      <trkpt lat="62.8151438" lon="14.4458801">
        <ele>317.6</ele>
        <time>2012-07-25T17:03:12Z</time>
      </trkpt>
      <trkpt lat="62.8154708" lon="14.4454745">
        <ele>318.4</ele>
        <time>2012-07-25T17:03:19Z</time>
      </trkpt>
      <trkpt lat="62.81581" lon="14.4450485">
        <ele>320.2</ele>
        <time>2012-07-25T17:03:26Z</time>
      </trkpt>
      <trkpt lat="62.8161176" lon="14.444671">
        <ele>321.6</ele>
        <time>2012-07-25T17:03:33Z</time>
      </trkpt>
      <trkpt lat="62.8164363" lon="14.4442722">
        <ele>325.8</ele>
        <time>2012-07-25T17:03:40Z</time>
      </trkpt>
      <trkpt lat="62.8167548" lon="14.4438742">
        <ele>328</ele>
        <time>2012-07-25T17:03:47Z</time>
      </trkpt>
      <trkpt lat="62.8170709" lon="14.4434386">
        <ele>330</ele>
        <time>2012-07-25T17:03:54Z</time>
      </trkpt>
      <trkpt lat="62.8173933" lon="14.4429774">
        <ele>330.2</ele>
        <time>2012-07-25T17:04:01Z</time>
      </trkpt>
      <trkpt lat="62.8177373" lon="14.4424735">
        <ele>330.2</ele>
        <time>2012-07-25T17:04:08Z</time>
      </trkpt>
      <trkpt lat="62.8180191" lon="14.4419875">
        <ele>331.2</ele>
        <time>2012-07-25T17:04:14Z</time>
      </trkpt>
      <trkpt lat="62.8183006" lon="14.4413127">
        <ele>330.6</ele>
        <time>2012-07-25T17:04:21Z</time>
      </trkpt>
      <trkpt lat="62.8185291" lon="14.4405802">
        <ele>328.6</ele>
        <time>2012-07-25T17:04:27Z</time>
      </trkpt>
      <trkpt lat="62.8187326" lon="14.4398589">
        <ele>326</ele>
        <time>2012-07-25T17:04:32Z</time>
      </trkpt>
      <trkpt lat="62.8189522" lon="14.4390604">
        <ele>324</ele>
        <time>2012-07-25T17:04:37Z</time>
      </trkpt>
      <trkpt lat="62.8191432" lon="14.4383748">
        <ele>322.8</ele>
        <time>2012-07-25T17:04:41Z</time>
      </trkpt>
      <trkpt lat="62.8193744" lon="14.4375663">
        <ele>321.6</ele>
        <time>2012-07-25T17:04:46Z</time>
      </trkpt>
      <trkpt lat="62.8195845" lon="14.4368231">
        <ele>322.6</ele>
        <time>2012-07-25T17:04:51Z</time>
      </trkpt>
      <trkpt lat="62.8197816" lon="14.436119">
        <ele>322.8</ele>
        <time>2012-07-25T17:04:56Z</time>
      </trkpt>
      <trkpt lat="62.8199716" lon="14.4354244">
        <ele>323.2</ele>
        <time>2012-07-25T17:05:01Z</time>
      </trkpt>
      <trkpt lat="62.8201679" lon="14.4347308">
        <ele>322.2</ele>
        <time>2012-07-25T17:05:06Z</time>
      </trkpt>
      <trkpt lat="62.8203729" lon="14.4340061">
        <ele>320.8</ele>
        <time>2012-07-25T17:05:11Z</time>
      </trkpt>
      <trkpt lat="62.8205824" lon="14.4332618">
        <ele>319.8</ele>
        <time>2012-07-25T17:05:16Z</time>
      </trkpt>
      <trkpt lat="62.820802" lon="14.4324879">
        <ele>319</ele>
        <time>2012-07-25T17:05:21Z</time>
      </trkpt>
      <trkpt lat="62.8210258" lon="14.4317098">
        <ele>318</ele>
        <time>2012-07-25T17:05:26Z</time>
      </trkpt>
      <trkpt lat="62.8212821" lon="14.4309606">
        <ele>317.4</ele>
        <time>2012-07-25T17:05:31Z</time>
      </trkpt>
      <trkpt lat="62.8215424" lon="14.4302583">
        <ele>316.2</ele>
        <time>2012-07-25T17:05:36Z</time>
      </trkpt>
      <trkpt lat="62.821794" lon="14.4295745">
        <ele>315.4</ele>
        <time>2012-07-25T17:05:41Z</time>
      </trkpt>
      <trkpt lat="62.8220405" lon="14.4289032">
        <ele>314.2</ele>
        <time>2012-07-25T17:05:46Z</time>
      </trkpt>
      <trkpt lat="62.8222778" lon="14.4282587">
        <ele>313.2</ele>
        <time>2012-07-25T17:05:51Z</time>
      </trkpt>
      <trkpt lat="62.8225312" lon="14.4276376">
        <ele>312.4</ele>
        <time>2012-07-25T17:05:56Z</time>
      </trkpt>
      <trkpt lat="62.8228045" lon="14.4270499">
        <ele>311.8</ele>
        <time>2012-07-25T17:06:01Z</time>
      </trkpt>
      <trkpt lat="62.8231032" lon="14.4265192">
        <ele>312</ele>
        <time>2012-07-25T17:06:06Z</time>
      </trkpt>
      <trkpt lat="62.8233963" lon="14.4260218">
        <ele>311.8</ele>
        <time>2012-07-25T17:06:11Z</time>
      </trkpt>
      <trkpt lat="62.8236879" lon="14.4255341">
        <ele>311.4</ele>
        <time>2012-07-25T17:06:16Z</time>
      </trkpt>
      <trkpt lat="62.8239816" lon="14.4250462">
        <ele>311.2</ele>
        <time>2012-07-25T17:06:21Z</time>
      </trkpt>
      <trkpt lat="62.8242748" lon="14.4245618">
        <ele>311.2</ele>
        <time>2012-07-25T17:06:26Z</time>
      </trkpt>
      <trkpt lat="62.8245909" lon="14.424034">
        <ele>310.8</ele>
        <time>2012-07-25T17:06:31Z</time>
      </trkpt>
      <trkpt lat="62.8248984" lon="14.4235164">
        <ele>310.2</ele>
        <time>2012-07-25T17:06:36Z</time>
      </trkpt>
      <trkpt lat="62.8252" lon="14.4230103">
        <ele>310</ele>
        <time>2012-07-25T17:06:41Z</time>
      </trkpt>
      <trkpt lat="62.825502" lon="14.4225082">
        <ele>309.4</ele>
        <time>2012-07-25T17:06:46Z</time>
      </trkpt>
      <trkpt lat="62.825803" lon="14.4220037">
        <ele>308.8</ele>
        <time>2012-07-25T17:06:51Z</time>
      </trkpt>
      <trkpt lat="62.826105" lon="14.4214976">
        <ele>308.2</ele>
        <time>2012-07-25T17:06:56Z</time>
      </trkpt>
      <trkpt lat="62.8264084" lon="14.4209808">
        <ele>307.4</ele>
        <time>2012-07-25T17:07:01Z</time>
      </trkpt>
      <trkpt lat="62.826712" lon="14.4204805">
        <ele>307.2</ele>
        <time>2012-07-25T17:07:06Z</time>
      </trkpt>
      <trkpt lat="62.8270064" lon="14.4199816">
        <ele>307.4</ele>
        <time>2012-07-25T17:07:11Z</time>
      </trkpt>
      <trkpt lat="62.8273065" lon="14.4194954">
        <ele>308.2</ele>
        <time>2012-07-25T17:07:16Z</time>
      </trkpt>
      <trkpt lat="62.827613" lon="14.4190266">
        <ele>309.6</ele>
        <time>2012-07-25T17:07:21Z</time>
      </trkpt>
      <trkpt lat="62.8279132" lon="14.4186372">
        <ele>307.4</ele>
        <time>2012-07-25T17:07:26Z</time>
      </trkpt>
      <trkpt lat="62.8282278" lon="14.4182318">
        <ele>308.4</ele>
        <time>2012-07-25T17:07:31Z</time>
      </trkpt>
      <trkpt lat="62.8285622" lon="14.4178525">
        <ele>307.8</ele>
        <time>2012-07-25T17:07:36Z</time>
      </trkpt>
      <trkpt lat="62.8288921" lon="14.4175298">
        <ele>308</ele>
        <time>2012-07-25T17:07:41Z</time>
      </trkpt>
      <trkpt lat="62.8292981" lon="14.4171667">
        <ele>311.6</ele>
        <time>2012-07-25T17:07:47Z</time>
      </trkpt>
      <trkpt lat="62.8296365" lon="14.4169112">
        <ele>310</ele>
        <time>2012-07-25T17:07:52Z</time>
      </trkpt>
      <trkpt lat="62.8300293" lon="14.4166357">
        <ele>308.4</ele>
        <time>2012-07-25T17:07:58Z</time>
      </trkpt>
      <trkpt lat="62.8304004" lon="14.4163933">
        <ele>308.2</ele>
        <time>2012-07-25T17:08:04Z</time>
      </trkpt>
      <trkpt lat="62.8308048" lon="14.4161073">
        <ele>310.6</ele>
        <time>2012-07-25T17:08:10Z</time>
      </trkpt>
      <trkpt lat="62.8311944" lon="14.4158329">
        <ele>312.2</ele>
        <time>2012-07-25T17:08:16Z</time>
      </trkpt>
      <trkpt lat="62.8315749" lon="14.4155862">
        <ele>313.6</ele>
        <time>2012-07-25T17:08:22Z</time>
      </trkpt>
      <trkpt lat="62.8319472" lon="14.4153111">
        <ele>315.2</ele>
        <time>2012-07-25T17:08:28Z</time>
      </trkpt>
      <trkpt lat="62.8323142" lon="14.4150621">
        <ele>316.6</ele>
        <time>2012-07-25T17:08:34Z</time>
      </trkpt>
      <trkpt lat="62.8326853" lon="14.4148083">
        <ele>317.2</ele>
        <time>2012-07-25T17:08:40Z</time>
      </trkpt>
      <trkpt lat="62.8330779" lon="14.4145327">
        <ele>316.8</ele>
        <time>2012-07-25T17:08:46Z</time>
      </trkpt>
      <trkpt lat="62.8334291" lon="14.4142855">
        <ele>316.6</ele>
        <time>2012-07-25T17:08:51Z</time>
      </trkpt>
      <trkpt lat="62.8338376" lon="14.4140176">
        <ele>317.4</ele>
        <time>2012-07-25T17:08:57Z</time>
      </trkpt>
      <trkpt lat="62.8342569" lon="14.4137483">
        <ele>318.8</ele>
        <time>2012-07-25T17:09:02Z</time>
      </trkpt>
      <trkpt lat="62.8345963" lon="14.4135129">
        <ele>318.8</ele>
        <time>2012-07-25T17:09:08Z</time>
      </trkpt>
      <trkpt lat="62.8350157" lon="14.4132308">
        <ele>320.2</ele>
        <time>2012-07-25T17:09:14Z</time>
      </trkpt>
      <trkpt lat="62.8353738" lon="14.4129827">
        <ele>321.8</ele>
        <time>2012-07-25T17:09:19Z</time>
      </trkpt>
      <trkpt lat="62.8357425" lon="14.4127274">
        <ele>321.6</ele>
        <time>2012-07-25T17:09:24Z</time>
      </trkpt>
      <trkpt lat="62.8361228" lon="14.4124745">
        <ele>321.2</ele>
        <time>2012-07-25T17:09:29Z</time>
      </trkpt>
      <trkpt lat="62.8365092" lon="14.4122197">
        <ele>318</ele>
        <time>2012-07-25T17:09:34Z</time>
      </trkpt>
      <trkpt lat="62.8369244" lon="14.4119512">
        <ele>314.2</ele>
        <time>2012-07-25T17:09:39Z</time>
      </trkpt>
      <trkpt lat="62.8373362" lon="14.4116849">
        <ele>311.2</ele>
        <time>2012-07-25T17:09:44Z</time>
      </trkpt>
      <trkpt lat="62.8377103" lon="14.4114462">
        <ele>311</ele>
        <time>2012-07-25T17:09:49Z</time>
      </trkpt>
      <trkpt lat="62.8380704" lon="14.4112499">
        <ele>311</ele>
        <time>2012-07-25T17:09:54Z</time>
      </trkpt>
      <trkpt lat="62.8385014" lon="14.4111278">
        <ele>310.8</ele>
        <time>2012-07-25T17:10:00Z</time>
      </trkpt>
      <trkpt lat="62.8388827" lon="14.4110835">
        <ele>309.6</ele>
        <time>2012-07-25T17:10:05Z</time>
      </trkpt>
      <trkpt lat="62.8392633" lon="14.4110477">
        <ele>308.8</ele>
        <time>2012-07-25T17:10:10Z</time>
      </trkpt>
      <trkpt lat="62.8396373" lon="14.4110112">
        <ele>307.8</ele>
        <time>2012-07-25T17:10:15Z</time>
      </trkpt>
      <trkpt lat="62.8400252" lon="14.4109709">
        <ele>306.8</ele>
        <time>2012-07-25T17:10:20Z</time>
      </trkpt>
      <trkpt lat="62.8404531" lon="14.4109494">
        <ele>306.4</ele>
        <time>2012-07-25T17:10:25Z</time>
      </trkpt>
      <trkpt lat="62.8408481" lon="14.4109579">
        <ele>307.6</ele>
        <time>2012-07-25T17:10:30Z</time>
      </trkpt>
      <trkpt lat="62.8412403" lon="14.4110027">
        <ele>303.4</ele>
        <time>2012-07-25T17:10:36Z</time>
      </trkpt>
      <trkpt lat="62.8416782" lon="14.4110339">
        <ele>302</ele>
        <time>2012-07-25T17:10:42Z</time>
      </trkpt>
      <trkpt lat="62.8420844" lon="14.4110712">
        <ele>300.6</ele>
        <time>2012-07-25T17:10:47Z</time>
      </trkpt>
      <trkpt lat="62.8425005" lon="14.4111174">
        <ele>298.6</ele>
        <time>2012-07-25T17:10:52Z</time>
      </trkpt>
      <trkpt lat="62.8429273" lon="14.411169">
        <ele>298.2</ele>
        <time>2012-07-25T17:10:58Z</time>
      </trkpt>
      <trkpt lat="62.8433344" lon="14.4112111">
        <ele>299.4</ele>
        <time>2012-07-25T17:11:04Z</time>
      </trkpt>
      <trkpt lat="62.8437569" lon="14.4113394">
        <ele>298.4</ele>
        <time>2012-07-25T17:11:10Z</time>
      </trkpt>
      <trkpt lat="62.8441274" lon="14.4115046">
        <ele>297</ele>
        <time>2012-07-25T17:11:15Z</time>
      </trkpt>
      <trkpt lat="62.8445134" lon="14.4117191">
        <ele>296.6</ele>
        <time>2012-07-25T17:11:20Z</time>
      </trkpt>
      <trkpt lat="62.8449212" lon="14.4119274">
        <ele>295.8</ele>
        <time>2012-07-25T17:11:25Z</time>
      </trkpt>
      <trkpt lat="62.8453073" lon="14.4121565">
        <ele>294.6</ele>
        <time>2012-07-25T17:11:30Z</time>
      </trkpt>
      <trkpt lat="62.8456588" lon="14.4123557">
        <ele>295.6</ele>
        <time>2012-07-25T17:11:35Z</time>
      </trkpt>
      <trkpt lat="62.8460546" lon="14.4126976">
        <ele>298.8</ele>
        <time>2012-07-25T17:11:41Z</time>
      </trkpt>
      <trkpt lat="62.8464275" lon="14.4131525">
        <ele>300.6</ele>
        <time>2012-07-25T17:11:47Z</time>
      </trkpt>
      <trkpt lat="62.8467781" lon="14.4137101">
        <ele>301.4</ele>
        <time>2012-07-25T17:11:53Z</time>
      </trkpt>
      <trkpt lat="62.8470507" lon="14.4142565">
        <ele>299.8</ele>
        <time>2012-07-25T17:11:58Z</time>
      </trkpt>
      <trkpt lat="62.8473132" lon="14.41485">
        <ele>297.4</ele>
        <time>2012-07-25T17:12:03Z</time>
      </trkpt>
      <trkpt lat="62.847566" lon="14.4154241">
        <ele>298.8</ele>
        <time>2012-07-25T17:12:08Z</time>
      </trkpt>
      <trkpt lat="62.8477018" lon="14.4157976">
        <ele>299.6</ele>
        <time>2012-07-25T17:12:11Z</time>
      </trkpt>
      <trkpt lat="62.847783" lon="14.4160665">
        <ele>300.2</ele>
        <time>2012-07-25T17:12:13Z</time>
      </trkpt>
      <trkpt lat="62.847949" lon="14.4167725">
        <ele>301.8</ele>
        <time>2012-07-25T17:12:18Z</time>
      </trkpt>
      <trkpt lat="62.8481182" lon="14.417492">
        <ele>303.8</ele>
        <time>2012-07-25T17:12:23Z</time>
      </trkpt>
      <trkpt lat="62.848231" lon="14.4182802">
        <ele>304.2</ele>
        <time>2012-07-25T17:12:28Z</time>
      </trkpt>
      <trkpt lat="62.8482674" lon="14.4190755">
        <ele>305.2</ele>
        <time>2012-07-25T17:12:33Z</time>
      </trkpt>
      <trkpt lat="62.8482375" lon="14.4200091">
        <ele>305.2</ele>
        <time>2012-07-25T17:12:39Z</time>
      </trkpt>
      <trkpt lat="62.8481772" lon="14.4208262">
        <ele>305.4</ele>
        <time>2012-07-25T17:12:44Z</time>
      </trkpt>
      <trkpt lat="62.8481147" lon="14.4216719">
        <ele>304.6</ele>
        <time>2012-07-25T17:12:49Z</time>
      </trkpt>
      <trkpt lat="62.8480338" lon="14.4224716">
        <ele>304.6</ele>
        <time>2012-07-25T17:12:54Z</time>
      </trkpt>
      <trkpt lat="62.8479271" lon="14.4232361">
        <ele>305</ele>
        <time>2012-07-25T17:12:59Z</time>
      </trkpt>
      <trkpt lat="62.8477795" lon="14.4239743">
        <ele>305.6</ele>
        <time>2012-07-25T17:13:04Z</time>
      </trkpt>
      <trkpt lat="62.8475724" lon="14.4247408">
        <ele>305</ele>
        <time>2012-07-25T17:13:09Z</time>
      </trkpt>
      <trkpt lat="62.8473111" lon="14.4254998">
        <ele>303.4</ele>
        <time>2012-07-25T17:13:14Z</time>
      </trkpt>
      <trkpt lat="62.8470324" lon="14.4261501">
        <ele>303.6</ele>
        <time>2012-07-25T17:13:19Z</time>
      </trkpt>
      <trkpt lat="62.8467456" lon="14.4267653">
        <ele>303</ele>
        <time>2012-07-25T17:13:24Z</time>
      </trkpt>
      <trkpt lat="62.8464292" lon="14.4274632">
        <ele>302.2</ele>
        <time>2012-07-25T17:13:29Z</time>
      </trkpt>
      <trkpt lat="62.8461144" lon="14.4281464">
        <ele>303.8</ele>
        <time>2012-07-25T17:13:34Z</time>
      </trkpt>
      <trkpt lat="62.8458397" lon="14.4287455">
        <ele>306.2</ele>
        <time>2012-07-25T17:13:39Z</time>
      </trkpt>
      <trkpt lat="62.8455913" lon="14.4292977">
        <ele>308</ele>
        <time>2012-07-25T17:13:44Z</time>
      </trkpt>
      <trkpt lat="62.8453143" lon="14.4299487">
        <ele>307.8</ele>
        <time>2012-07-25T17:13:50Z</time>
      </trkpt>
      <trkpt lat="62.8450225" lon="14.4306171">
        <ele>307.8</ele>
        <time>2012-07-25T17:13:56Z</time>
      </trkpt>
      <trkpt lat="62.8447704" lon="14.4311986">
        <ele>307.8</ele>
        <time>2012-07-25T17:14:01Z</time>
      </trkpt>
      <trkpt lat="62.8445078" lon="14.4317756">
        <ele>308.8</ele>
        <time>2012-07-25T17:14:06Z</time>
      </trkpt>
      <trkpt lat="62.8442463" lon="14.4323367">
        <ele>310</ele>
        <time>2012-07-25T17:14:11Z</time>
      </trkpt>
      <trkpt lat="62.8439614" lon="14.4329629">
        <ele>311</ele>
        <time>2012-07-25T17:14:17Z</time>
      </trkpt>
      <trkpt lat="62.8436752" lon="14.43361">
        <ele>311.4</ele>
        <time>2012-07-25T17:14:23Z</time>
      </trkpt>
      <trkpt lat="62.8434148" lon="14.434189">
        <ele>310.8</ele>
        <time>2012-07-25T17:14:28Z</time>
      </trkpt>
      <trkpt lat="62.8431056" lon="14.4348619">
        <ele>311.4</ele>
        <time>2012-07-25T17:14:34Z</time>
      </trkpt>
      <trkpt lat="62.8428651" lon="14.4354377">
        <ele>312.6</ele>
        <time>2012-07-25T17:14:39Z</time>
      </trkpt>
      <trkpt lat="62.8425585" lon="14.4360778">
        <ele>313.6</ele>
        <time>2012-07-25T17:14:45Z</time>
      </trkpt>
      <trkpt lat="62.8422617" lon="14.4367418">
        <ele>315.2</ele>
        <time>2012-07-25T17:14:51Z</time>
      </trkpt>
      <trkpt lat="62.8419861" lon="14.4373348">
        <ele>316.4</ele>
        <time>2012-07-25T17:14:57Z</time>
      </trkpt>
      <trkpt lat="62.841692" lon="14.4380029">
        <ele>317.4</ele>
        <time>2012-07-25T17:15:04Z</time>
      </trkpt>
      <trkpt lat="62.8414347" lon="14.4385611">
        <ele>319.8</ele>
        <time>2012-07-25T17:15:10Z</time>
      </trkpt>
      <trkpt lat="62.8411349" lon="14.4392063">
        <ele>321.8</ele>
        <time>2012-07-25T17:15:17Z</time>
      </trkpt>
      <trkpt lat="62.8408506" lon="14.4398227">
        <ele>322.6</ele>
        <time>2012-07-25T17:15:23Z</time>
      </trkpt>
      <trkpt lat="62.8405629" lon="14.4404631">
        <ele>324</ele>
        <time>2012-07-25T17:15:29Z</time>
      </trkpt>
      <trkpt lat="62.8402891" lon="14.4410402">
        <ele>325</ele>
        <time>2012-07-25T17:15:35Z</time>
      </trkpt>
      <trkpt lat="62.8400094" lon="14.4416471">
        <ele>326.4</ele>
        <time>2012-07-25T17:15:41Z</time>
      </trkpt>
      <trkpt lat="62.8397165" lon="14.4422823">
        <ele>327.2</ele>
        <time>2012-07-25T17:15:47Z</time>
      </trkpt>
      <trkpt lat="62.8394224" lon="14.4429054">
        <ele>324.8</ele>
        <time>2012-07-25T17:15:52Z</time>
      </trkpt>
      <trkpt lat="62.8391216" lon="14.4435919">
        <ele>321.8</ele>
        <time>2012-07-25T17:15:57Z</time>
      </trkpt>
      <trkpt lat="62.8388257" lon="14.4442449">
        <ele>321.4</ele>
        <time>2012-07-25T17:16:02Z</time>
      </trkpt>
      <trkpt lat="62.8385371" lon="14.4448838">
        <ele>321.2</ele>
        <time>2012-07-25T17:16:07Z</time>
      </trkpt>
      <trkpt lat="62.8382653" lon="14.445489">
        <ele>321.8</ele>
        <time>2012-07-25T17:16:12Z</time>
      </trkpt>
      <trkpt lat="62.8380063" lon="14.4460711">
        <ele>323</ele>
        <time>2012-07-25T17:16:17Z</time>
      </trkpt>
      <trkpt lat="62.8377097" lon="14.4467311">
        <ele>324.8</ele>
        <time>2012-07-25T17:16:23Z</time>
      </trkpt>
      <trkpt lat="62.8374209" lon="14.4473812">
        <ele>325.4</ele>
        <time>2012-07-25T17:16:29Z</time>
      </trkpt>
      <trkpt lat="62.8371639" lon="14.4479493">
        <ele>324.4</ele>
        <time>2012-07-25T17:16:34Z</time>
      </trkpt>
      <trkpt lat="62.8368665" lon="14.4485954">
        <ele>321.6</ele>
        <time>2012-07-25T17:16:39Z</time>
      </trkpt>
      <trkpt lat="62.8365502" lon="14.4492958">
        <ele>319.2</ele>
        <time>2012-07-25T17:16:44Z</time>
      </trkpt>
      <trkpt lat="62.8362388" lon="14.4499869">
        <ele>318.8</ele>
        <time>2012-07-25T17:16:49Z</time>
      </trkpt>
      <trkpt lat="62.8359676" lon="14.4506146">
        <ele>320.4</ele>
        <time>2012-07-25T17:16:54Z</time>
      </trkpt>
      <trkpt lat="62.8359213" lon="14.4507264">
        <ele>320.6</ele>
        <time>2012-07-25T17:16:55Z</time>
      </trkpt>
      <trkpt lat="62.8357363" lon="14.4510964">
        <ele>320.2</ele>
        <time>2012-07-25T17:16:59Z</time>
      </trkpt>
      <trkpt lat="62.8356845" lon="14.4511507">
        <ele>320</ele>
        <time>2012-07-25T17:17:00Z</time>
      </trkpt>
      <trkpt lat="62.8353762" lon="14.451921">
        <ele>316.2</ele>
        <time>2012-07-25T17:20:59Z</time>
      </trkpt>
      <trkpt lat="62.8355173" lon="14.4516231">
        <ele>316</ele>
        <time>2012-07-25T17:21:03Z</time>
      </trkpt>
      <trkpt lat="62.8355838" lon="14.4514274">
        <ele>315.6</ele>
        <time>2012-07-25T17:21:05Z</time>
      </trkpt>
      <trkpt lat="62.8355115" lon="14.450815">
        <ele>315.4</ele>
        <time>2012-07-25T17:21:10Z</time>
      </trkpt>
      <trkpt lat="62.8352556" lon="14.4500886">
        <ele>317.2</ele>
        <time>2012-07-25T17:21:16Z</time>
      </trkpt>
      <trkpt lat="62.8350352" lon="14.4494382">
        <ele>318</ele>
        <time>2012-07-25T17:21:22Z</time>
      </trkpt>
      <trkpt lat="62.8349329" lon="14.4491517">
        <ele>317.4</ele>
        <time>2012-07-25T17:21:25Z</time>
      </trkpt>
      <trkpt lat="62.8348156" lon="14.4487638">
        <ele>316.2</ele>
        <time>2012-07-25T17:21:29Z</time>
      </trkpt>
      <trkpt lat="62.8347827" lon="14.4486802">
        <ele>317.2</ele>
        <time>2012-07-25T17:21:30Z</time>
      </trkpt>
      <trkpt lat="62.8345324" lon="14.4481697">
        <ele>322.2</ele>
        <time>2012-07-25T17:21:37Z</time>
      </trkpt>
      <trkpt lat="62.8342569" lon="14.447631">
        <ele>322.4</ele>
        <time>2012-07-25T17:21:44Z</time>
      </trkpt>
      <trkpt lat="62.8339679" lon="14.4471236">
        <ele>325.8</ele>
        <time>2012-07-25T17:21:51Z</time>
      </trkpt>
      <trkpt lat="62.833685" lon="14.4466223">
        <ele>327.4</ele>
        <time>2012-07-25T17:21:59Z</time>
      </trkpt>
      <trkpt lat="62.833403" lon="14.4461129">
        <ele>332</ele>
        <time>2012-07-25T17:22:09Z</time>
      </trkpt>
      <trkpt lat="62.8331468" lon="14.445563">
        <ele>335</ele>
        <time>2012-07-25T17:22:21Z</time>
      </trkpt>
      <trkpt lat="62.832998" lon="14.4448517">
        <ele>341</ele>
        <time>2012-07-25T17:22:34Z</time>
      </trkpt>
      <trkpt lat="62.8330363" lon="14.4440565">
        <ele>344.8</ele>
        <time>2012-07-25T17:22:48Z</time>
      </trkpt>
      <trkpt lat="62.8332125" lon="14.4433759">
        <ele>352.2</ele>
        <time>2012-07-25T17:23:01Z</time>
      </trkpt>
      <trkpt lat="62.8334229" lon="14.4426601">
        <ele>355</ele>
        <time>2012-07-25T17:23:11Z</time>
      </trkpt>
      <trkpt lat="62.833547" lon="14.4423379">
        <ele>357.2</ele>
        <time>2012-07-25T17:23:16Z</time>
      </trkpt>
      <trkpt lat="62.8337119" lon="14.4420808">
        <ele>358.2</ele>
        <time>2012-07-25T17:23:21Z</time>
      </trkpt>
      <trkpt lat="62.8340251" lon="14.44167">
        <ele>360</ele>
        <time>2012-07-25T17:23:29Z</time>
      </trkpt>
      <trkpt lat="62.8343732" lon="14.4412054">
        <ele>362</ele>
        <time>2012-07-25T17:23:37Z</time>
      </trkpt>
      <trkpt lat="62.8346946" lon="14.4407241">
        <ele>361.4</ele>
        <time>2012-07-25T17:23:45Z</time>
      </trkpt>
      <trkpt lat="62.8348838" lon="14.4403207">
        <ele>363.2</ele>
        <time>2012-07-25T17:23:51Z</time>
      </trkpt>
      <trkpt lat="62.8349568" lon="14.440086">
        <ele>364.8</ele>
        <time>2012-07-25T17:23:54Z</time>
      </trkpt>
      <trkpt lat="62.8351305" lon="14.4392927">
        <ele>370.8</ele>
        <time>2012-07-25T17:24:04Z</time>
      </trkpt>
      <trkpt lat="62.8352606" lon="14.4385704">
        <ele>375.6</ele>
        <time>2012-07-25T17:24:14Z</time>
      </trkpt>
      <trkpt lat="62.8354157" lon="14.437885">
        <ele>382.8</ele>
        <time>2012-07-25T17:24:25Z</time>
      </trkpt>
      <trkpt lat="62.8356196" lon="14.4371901">
        <ele>390.2</ele>
        <time>2012-07-25T17:24:37Z</time>
      </trkpt>
      <trkpt lat="62.8356429" lon="14.4371057">
        <ele>391</ele>
        <time>2012-07-25T17:24:38Z</time>
      </trkpt>
      <trkpt lat="62.8358269" lon="14.4364745">
        <ele>395.6</ele>
        <time>2012-07-25T17:24:46Z</time>
      </trkpt>
      <trkpt lat="62.8360343" lon="14.4357159">
        <ele>398.2</ele>
        <time>2012-07-25T17:24:55Z</time>
      </trkpt>
      <trkpt lat="62.8361409" lon="14.4353414">
        <ele>397.4</ele>
        <time>2012-07-25T17:24:59Z</time>
      </trkpt>
      <trkpt lat="62.836229" lon="14.4350287">
        <ele>397</ele>
        <time>2012-07-25T17:25:02Z</time>
      </trkpt>
      <trkpt lat="62.836258" lon="14.4349096">
        <ele>397</ele>
        <time>2012-07-25T17:25:03Z</time>
      </trkpt>
      <trkpt lat="62.8364246" lon="14.4342743">
        <ele>398.8</ele>
        <time>2012-07-25T17:25:09Z</time>
      </trkpt>
      <trkpt lat="62.8366097" lon="14.4335884">
        <ele>402.4</ele>
        <time>2012-07-25T17:25:16Z</time>
      </trkpt>
      <trkpt lat="62.8367747" lon="14.4328615">
        <ele>405</ele>
        <time>2012-07-25T17:25:25Z</time>
      </trkpt>
      <trkpt lat="62.8369221" lon="14.432108">
        <ele>409</ele>
        <time>2012-07-25T17:25:33Z</time>
      </trkpt>
      <trkpt lat="62.8370557" lon="14.4315957">
        <ele>407.8</ele>
        <time>2012-07-25T17:25:38Z</time>
      </trkpt>
      <trkpt lat="62.8371021" lon="14.4313864">
        <ele>406.6</ele>
        <time>2012-07-25T17:25:40Z</time>
      </trkpt>
      <trkpt lat="62.8372402" lon="14.4308763">
        <ele>403.4</ele>
        <time>2012-07-25T17:25:45Z</time>
      </trkpt>
      <trkpt lat="62.8372906" lon="14.430684">
        <ele>402.6</ele>
        <time>2012-07-25T17:25:47Z</time>
      </trkpt>
      <trkpt lat="62.8374271" lon="14.4303462">
        <ele>403.4</ele>
        <time>2012-07-25T17:25:51Z</time>
      </trkpt>
      <trkpt lat="62.8375534" lon="14.4300862">
        <ele>404.6</ele>
        <time>2012-07-25T17:25:54Z</time>
      </trkpt>
      <trkpt lat="62.8378273" lon="14.4294941">
        <ele>407</ele>
        <time>2012-07-25T17:26:01Z</time>
      </trkpt>
      <trkpt lat="62.8381041" lon="14.4289747">
        <ele>408.2</ele>
        <time>2012-07-25T17:26:07Z</time>
      </trkpt>
      <trkpt lat="62.838404" lon="14.4285199">
        <ele>410.6</ele>
        <time>2012-07-25T17:26:14Z</time>
      </trkpt>
      <trkpt lat="62.8386391" lon="14.4281479">
        <ele>413.8</ele>
        <time>2012-07-25T17:26:21Z</time>
      </trkpt>
      <trkpt lat="62.8386838" lon="14.4279915">
        <ele>414.4</ele>
        <time>2012-07-25T17:26:23Z</time>
      </trkpt>
      <trkpt lat="62.8384921" lon="14.4274523">
        <ele>419.2</ele>
        <time>2012-07-25T17:26:31Z</time>
      </trkpt>
      <trkpt lat="62.8383651" lon="14.4275875">
        <ele>423.8</ele>
        <time>2012-07-25T17:26:35Z</time>
      </trkpt>
      <trkpt lat="62.8382056" lon="14.4278092">
        <ele>429</ele>
        <time>2012-07-25T17:26:41Z</time>
      </trkpt>
      <trkpt lat="62.8379149" lon="14.4282661">
        <ele>433.2</ele>
        <time>2012-07-25T17:26:51Z</time>
      </trkpt>
      <trkpt lat="62.8375935" lon="14.4287007">
        <ele>435.8</ele>
        <time>2012-07-25T17:27:01Z</time>
      </trkpt>
      <trkpt lat="62.8372582" lon="14.4289465">
        <ele>439</ele>
        <time>2012-07-25T17:27:12Z</time>
      </trkpt>
      <trkpt lat="62.8368954" lon="14.4291027">
        <ele>437.8</ele>
        <time>2012-07-25T17:27:22Z</time>
      </trkpt>
      <trkpt lat="62.8365422" lon="14.4292855">
        <ele>445.2</ele>
        <time>2012-07-25T17:27:31Z</time>
      </trkpt>
      <trkpt lat="62.8361756" lon="14.429469">
        <ele>451.6</ele>
        <time>2012-07-25T17:27:42Z</time>
      </trkpt>
      <trkpt lat="62.8358322" lon="14.4296787">
        <ele>456</ele>
        <time>2012-07-25T17:27:54Z</time>
      </trkpt>
      <trkpt lat="62.8354585" lon="14.4299725">
        <ele>460.2</ele>
        <time>2012-07-25T17:28:06Z</time>
      </trkpt>
      <trkpt lat="62.835164" lon="14.4302844">
        <ele>464.6</ele>
        <time>2012-07-25T17:28:14Z</time>
      </trkpt>
      <trkpt lat="62.8351238" lon="14.4303085">
        <ele>465</ele>
        <time>2012-07-25T17:28:15Z</time>
      </trkpt>
      <trkpt lat="62.8347505" lon="14.4304312">
        <ele>465.2</ele>
        <time>2012-07-25T17:28:26Z</time>
      </trkpt>
      <trkpt lat="62.8343915" lon="14.430468">
        <ele>463.6</ele>
        <time>2012-07-25T17:28:38Z</time>
      </trkpt>
      <trkpt lat="62.8340254" lon="14.4305567">
        <ele>468.8</ele>
        <time>2012-07-25T17:28:48Z</time>
      </trkpt>
      <trkpt lat="62.833662" lon="14.4305052">
        <ele>474.4</ele>
        <time>2012-07-25T17:28:57Z</time>
      </trkpt>
      <trkpt lat="62.8335534" lon="14.4303816">
        <ele>473.2</ele>
        <time>2012-07-25T17:29:00Z</time>
      </trkpt>
      <trkpt lat="62.8334166" lon="14.429993">
        <ele>471.4</ele>
        <time>2012-07-25T17:29:06Z</time>
      </trkpt>
      <trkpt lat="62.8334082" lon="14.4299453">
        <ele>472</ele>
        <time>2012-07-25T17:29:07Z</time>
      </trkpt>
      <trkpt lat="62.8333365" lon="14.4296062">
        <ele>476</ele>
        <time>2012-07-25T17:29:13Z</time>
      </trkpt>
      <trkpt lat="62.8332155" lon="14.4292249">
        <ele>478.4</ele>
        <time>2012-07-25T17:29:21Z</time>
      </trkpt>
      <trkpt lat="62.8328889" lon="14.4289432">
        <ele>475.6</ele>
        <time>2012-07-25T17:29:36Z</time>
      </trkpt>
      <trkpt lat="62.8325617" lon="14.429015">
        <ele>476</ele>
        <time>2012-07-25T17:29:50Z</time>
      </trkpt>
      <trkpt lat="62.8322022" lon="14.4291696">
        <ele>482.4</ele>
        <time>2012-07-25T17:30:01Z</time>
      </trkpt>
      <trkpt lat="62.8320242" lon="14.4292744">
        <ele>486</ele>
        <time>2012-07-25T17:30:05Z</time>
      </trkpt>
      <trkpt lat="62.8319066" lon="14.4293963">
        <ele>489</ele>
        <time>2012-07-25T17:30:08Z</time>
      </trkpt>
      <trkpt lat="62.8318342" lon="14.4294983">
        <ele>489.4</ele>
        <time>2012-07-25T17:30:10Z</time>
      </trkpt>
      <trkpt lat="62.8316347" lon="14.4298134">
        <ele>492.6</ele>
        <time>2012-07-25T17:30:16Z</time>
      </trkpt>
      <trkpt lat="62.8315386" lon="14.4299779">
        <ele>494.2</ele>
        <time>2012-07-25T17:30:19Z</time>
      </trkpt>
      <trkpt lat="62.8312256" lon="14.4304608">
        <ele>499.8</ele>
        <time>2012-07-25T17:30:29Z</time>
      </trkpt>
      <trkpt lat="62.8309245" lon="14.430882">
        <ele>502</ele>
        <time>2012-07-25T17:30:39Z</time>
      </trkpt>
      <trkpt lat="62.8306162" lon="14.4312328">
        <ele>503.6</ele>
        <time>2012-07-25T17:30:51Z</time>
      </trkpt>
      <trkpt lat="62.8303086" lon="14.4316031">
        <ele>508.6</ele>
        <time>2012-07-25T17:31:03Z</time>
      </trkpt>
      <trkpt lat="62.829979" lon="14.4319859">
        <ele>512.2</ele>
        <time>2012-07-25T17:31:17Z</time>
      </trkpt>
      <trkpt lat="62.8296603" lon="14.4320962">
        <ele>517.2</ele>
        <time>2012-07-25T17:31:27Z</time>
      </trkpt>
      <trkpt lat="62.8296259" lon="14.4320667">
        <ele>517.4</ele>
        <time>2012-07-25T17:31:28Z</time>
      </trkpt>
      <trkpt lat="62.8295078" lon="14.4318813">
        <ele>519.2</ele>
        <time>2012-07-25T17:31:33Z</time>
      </trkpt>
      <trkpt lat="62.8293842" lon="14.4314874">
        <ele>521.2</ele>
        <time>2012-07-25T17:31:42Z</time>
      </trkpt>
      <trkpt lat="62.8291999" lon="14.4308383">
        <ele>524.6</ele>
        <time>2012-07-25T17:31:56Z</time>
      </trkpt>
      <trkpt lat="62.828965" lon="14.4302074">
        <ele>528.4</ele>
        <time>2012-07-25T17:32:10Z</time>
      </trkpt>
      <trkpt lat="62.8291767" lon="14.4296491">
        <ele>534.8</ele>
        <time>2012-07-25T17:32:21Z</time>
      </trkpt>
      <trkpt lat="62.8292887" lon="14.4294078">
        <ele>536.6</ele>
        <time>2012-07-25T17:32:25Z</time>
      </trkpt>
      <trkpt lat="62.8291776" lon="14.4291176">
        <ele>539</ele>
        <time>2012-07-25T17:32:30Z</time>
      </trkpt>
      <trkpt lat="62.828995" lon="14.429415">
        <ele>540.2</ele>
        <time>2012-07-25T17:32:35Z</time>
      </trkpt>
      <trkpt lat="62.8288944" lon="14.4296946">
        <ele>540.6</ele>
        <time>2012-07-25T17:32:38Z</time>
      </trkpt>
      <trkpt lat="62.8286565" lon="14.4303672">
        <ele>542.6</ele>
        <time>2012-07-25T17:32:45Z</time>
      </trkpt>
      <trkpt lat="62.8284236" lon="14.4309399">
        <ele>547.8</ele>
        <time>2012-07-25T17:32:53Z</time>
      </trkpt>
      <trkpt lat="62.8281825" lon="14.4313684">
        <ele>549</ele>
        <time>2012-07-25T17:33:02Z</time>
      </trkpt>
      <trkpt lat="62.8281941" lon="14.4314072">
        <ele>548.6</ele>
        <time>2012-07-25T17:33:04Z</time>
      </trkpt>
      <trkpt lat="62.8282581" lon="14.4312306">
        <ele>545</ele>
        <time>2012-07-25T17:34:03Z</time>
      </trkpt>
      <trkpt lat="62.8283373" lon="14.4310835">
        <ele>543.4</ele>
        <time>2012-07-25T17:34:06Z</time>
      </trkpt>
      <trkpt lat="62.8285296" lon="14.4306321">
        <ele>539.6</ele>
        <time>2012-07-25T17:34:10Z</time>
      </trkpt>
      <trkpt lat="62.8287792" lon="14.429918">
        <ele>536.4</ele>
        <time>2012-07-25T17:34:14Z</time>
      </trkpt>
      <trkpt lat="62.8290187" lon="14.4291195">
        <ele>536.2</ele>
        <time>2012-07-25T17:34:19Z</time>
      </trkpt>
      <trkpt lat="62.8292545" lon="14.429478">
        <ele>537.2</ele>
        <time>2012-07-25T17:34:24Z</time>
      </trkpt>
      <trkpt lat="62.8289462" lon="14.4299776">
        <ele>535.2</ele>
        <time>2012-07-25T17:34:29Z</time>
      </trkpt>
      <trkpt lat="62.8291203" lon="14.4307593">
        <ele>531</ele>
        <time>2012-07-25T17:34:34Z</time>
      </trkpt>
      <trkpt lat="62.8292338" lon="14.4311415">
        <ele>528.6</ele>
        <time>2012-07-25T17:34:36Z</time>
      </trkpt>
      <trkpt lat="62.8293314" lon="14.4315475">
        <ele>525.6</ele>
        <time>2012-07-25T17:34:38Z</time>
      </trkpt>
      <trkpt lat="62.8293788" lon="14.4317259">
        <ele>524.2</ele>
        <time>2012-07-25T17:34:39Z</time>
      </trkpt>
      <trkpt lat="62.8294799" lon="14.4320253">
        <ele>521.4</ele>
        <time>2012-07-25T17:34:41Z</time>
      </trkpt>
      <trkpt lat="62.8295451" lon="14.4321403">
        <ele>520</ele>
        <time>2012-07-25T17:34:42Z</time>
      </trkpt>
      <trkpt lat="62.8299024" lon="14.4321102">
        <ele>516.6</ele>
        <time>2012-07-25T17:34:46Z</time>
      </trkpt>
      <trkpt lat="62.8300826" lon="14.431918">
        <ele>513.2</ele>
        <time>2012-07-25T17:34:48Z</time>
      </trkpt>
      <trkpt lat="62.8302755" lon="14.4316737">
        <ele>509.6</ele>
        <time>2012-07-25T17:34:50Z</time>
      </trkpt>
      <trkpt lat="62.830684" lon="14.4311256">
        <ele>502.8</ele>
        <time>2012-07-25T17:34:54Z</time>
      </trkpt>
      <trkpt lat="62.8310124" lon="14.4306477">
        <ele>498</ele>
        <time>2012-07-25T17:34:57Z</time>
      </trkpt>
      <trkpt lat="62.8313318" lon="14.4301978">
        <ele>493.4</ele>
        <time>2012-07-25T17:35:00Z</time>
      </trkpt>
      <trkpt lat="62.8316393" lon="14.4297101">
        <ele>489</ele>
        <time>2012-07-25T17:35:03Z</time>
      </trkpt>
      <trkpt lat="62.8317414" lon="14.4295617">
        <ele>488.4</ele>
        <time>2012-07-25T17:35:04Z</time>
      </trkpt>
      <trkpt lat="62.8319465" lon="14.4293268">
        <ele>487.6</ele>
        <time>2012-07-25T17:35:06Z</time>
      </trkpt>
      <trkpt lat="62.8320476" lon="14.4292586">
        <ele>487.2</ele>
        <time>2012-07-25T17:35:07Z</time>
      </trkpt>
      <trkpt lat="62.8324569" lon="14.4290854">
        <ele>488</ele>
        <time>2012-07-25T17:35:11Z</time>
      </trkpt>
      <trkpt lat="62.8328521" lon="14.4289642">
        <ele>485.4</ele>
        <time>2012-07-25T17:35:15Z</time>
      </trkpt>
      <trkpt lat="62.8329406" lon="14.4289581">
        <ele>484.2</ele>
        <time>2012-07-25T17:35:16Z</time>
      </trkpt>
      <trkpt lat="62.8332515" lon="14.4293151">
        <ele>480.6</ele>
        <time>2012-07-25T17:35:20Z</time>
      </trkpt>
      <trkpt lat="62.8333358" lon="14.4297455">
        <ele>478.8</ele>
        <time>2012-07-25T17:35:22Z</time>
      </trkpt>
      <trkpt lat="62.8334147" lon="14.4301771">
        <ele>476.6</ele>
        <time>2012-07-25T17:35:24Z</time>
      </trkpt>
      <trkpt lat="62.8337513" lon="14.4306123">
        <ele>472.6</ele>
        <time>2012-07-25T17:35:28Z</time>
      </trkpt>
      <trkpt lat="62.8339688" lon="14.4306027">
        <ele>469.6</ele>
        <time>2012-07-25T17:35:30Z</time>
      </trkpt>
      <trkpt lat="62.8342019" lon="14.4305303">
        <ele>466.6</ele>
        <time>2012-07-25T17:35:32Z</time>
      </trkpt>
      <trkpt lat="62.8346833" lon="14.4304245">
        <ele>461.4</ele>
        <time>2012-07-25T17:35:36Z</time>
      </trkpt>
      <trkpt lat="62.8350254" lon="14.4303184">
        <ele>459</ele>
        <time>2012-07-25T17:35:39Z</time>
      </trkpt>
      <trkpt lat="62.8351271" lon="14.4302613">
        <ele>458</ele>
        <time>2012-07-25T17:35:40Z</time>
      </trkpt>
      <trkpt lat="62.8355151" lon="14.4298833">
        <ele>455.2</ele>
        <time>2012-07-25T17:35:44Z</time>
      </trkpt>
      <trkpt lat="62.8358239" lon="14.4296344">
        <ele>453</ele>
        <time>2012-07-25T17:35:47Z</time>
      </trkpt>
      <trkpt lat="62.8359296" lon="14.4295826">
        <ele>452</ele>
        <time>2012-07-25T17:35:48Z</time>
      </trkpt>
      <trkpt lat="62.8363639" lon="14.4293814">
        <ele>448.6</ele>
        <time>2012-07-25T17:35:52Z</time>
      </trkpt>
      <trkpt lat="62.8367485" lon="14.4292083">
        <ele>446.2</ele>
        <time>2012-07-25T17:35:56Z</time>
      </trkpt>
      <trkpt lat="62.8371186" lon="14.4290488">
        <ele>443.8</ele>
        <time>2012-07-25T17:36:01Z</time>
      </trkpt>
      <trkpt lat="62.8375272" lon="14.4287635">
        <ele>435.6</ele>
        <time>2012-07-25T17:36:06Z</time>
      </trkpt>
      <trkpt lat="62.8378724" lon="14.4283534">
        <ele>430.8</ele>
        <time>2012-07-25T17:36:10Z</time>
      </trkpt>
      <trkpt lat="62.8382119" lon="14.4278668">
        <ele>425.6</ele>
        <time>2012-07-25T17:36:14Z</time>
      </trkpt>
      <trkpt lat="62.838505" lon="14.4275092">
        <ele>421</ele>
        <time>2012-07-25T17:36:18Z</time>
      </trkpt>
      <trkpt lat="62.8385759" lon="14.427503">
        <ele>419.8</ele>
        <time>2012-07-25T17:36:19Z</time>
      </trkpt>
      <trkpt lat="62.8386245" lon="14.4281133">
        <ele>415</ele>
        <time>2012-07-25T17:36:24Z</time>
      </trkpt>
      <trkpt lat="62.8384057" lon="14.428512">
        <ele>416.8</ele>
        <time>2012-07-25T17:36:27Z</time>
      </trkpt>
      <trkpt lat="62.8383201" lon="14.4286416">
        <ele>416.6</ele>
        <time>2012-07-25T17:36:28Z</time>
      </trkpt>
      <trkpt lat="62.8380005" lon="14.4292114">
        <ele>417.4</ele>
        <time>2012-07-25T17:36:32Z</time>
      </trkpt>
      <trkpt lat="62.8377441" lon="14.4297811">
        <ele>418.6</ele>
        <time>2012-07-25T17:36:36Z</time>
      </trkpt>
      <trkpt lat="62.8374421" lon="14.4304898">
        <ele>417.8</ele>
        <time>2012-07-25T17:36:41Z</time>
      </trkpt>
      <trkpt lat="62.8373143" lon="14.4307984">
        <ele>415.2</ele>
        <time>2012-07-25T17:36:43Z</time>
      </trkpt>
      <trkpt lat="62.8371979" lon="14.431158">
        <ele>413.4</ele>
        <time>2012-07-25T17:36:45Z</time>
      </trkpt>
      <trkpt lat="62.8369758" lon="14.4319546">
        <ele>411.6</ele>
        <time>2012-07-25T17:36:49Z</time>
      </trkpt>
      <trkpt lat="62.8368147" lon="14.4327307">
        <ele>410.8</ele>
        <time>2012-07-25T17:36:53Z</time>
      </trkpt>
      <trkpt lat="62.8366625" lon="14.4334931">
        <ele>405.8</ele>
        <time>2012-07-25T17:36:57Z</time>
      </trkpt>
      <trkpt lat="62.8364513" lon="14.4343465">
        <ele>403.8</ele>
        <time>2012-07-25T17:37:01Z</time>
      </trkpt>
      <trkpt lat="62.8361429" lon="14.4354477">
        <ele>400</ele>
        <time>2012-07-25T17:37:05Z</time>
      </trkpt>
      <trkpt lat="62.8359682" lon="14.4360517">
        <ele>394</ele>
        <time>2012-07-25T17:37:09Z</time>
      </trkpt>
      <trkpt lat="62.8357685" lon="14.4367438">
        <ele>388.2</ele>
        <time>2012-07-25T17:37:13Z</time>
      </trkpt>
      <trkpt lat="62.8355445" lon="14.4374362">
        <ele>383</ele>
        <time>2012-07-25T17:37:17Z</time>
      </trkpt>
      <trkpt lat="62.8353307" lon="14.4382633">
        <ele>379.8</ele>
        <time>2012-07-25T17:37:21Z</time>
      </trkpt>
      <trkpt lat="62.835165" lon="14.4390852">
        <ele>379</ele>
        <time>2012-07-25T17:37:25Z</time>
      </trkpt>
      <trkpt lat="62.8349971" lon="14.4398997">
        <ele>374</ele>
        <time>2012-07-25T17:37:29Z</time>
      </trkpt>
      <trkpt lat="62.834942" lon="14.4400969">
        <ele>372.6</ele>
        <time>2012-07-25T17:37:30Z</time>
      </trkpt>
      <trkpt lat="62.834805" lon="14.4404703">
        <ele>370.2</ele>
        <time>2012-07-25T17:37:32Z</time>
      </trkpt>
      <trkpt lat="62.834725" lon="14.4406403">
        <ele>369</ele>
        <time>2012-07-25T17:37:33Z</time>
      </trkpt>
      <trkpt lat="62.8344582" lon="14.4410723">
        <ele>365.2</ele>
        <time>2012-07-25T17:37:36Z</time>
      </trkpt>
      <trkpt lat="62.8343712" lon="14.4411973">
        <ele>364.6</ele>
        <time>2012-07-25T17:37:37Z</time>
      </trkpt>
      <trkpt lat="62.8340309" lon="14.4416626">
        <ele>363</ele>
        <time>2012-07-25T17:37:41Z</time>
      </trkpt>
      <trkpt lat="62.8337021" lon="14.4420783">
        <ele>361.2</ele>
        <time>2012-07-25T17:37:45Z</time>
      </trkpt>
      <trkpt lat="62.8334973" lon="14.4424381">
        <ele>360.2</ele>
        <time>2012-07-25T17:37:48Z</time>
      </trkpt>
      <trkpt lat="62.8333851" lon="14.4427399">
        <ele>359.6</ele>
        <time>2012-07-25T17:37:50Z</time>
      </trkpt>
      <trkpt lat="62.8331587" lon="14.4435484">
        <ele>357.4</ele>
        <time>2012-07-25T17:37:55Z</time>
      </trkpt>
      <trkpt lat="62.8329851" lon="14.4443221">
        <ele>351.6</ele>
        <time>2012-07-25T17:38:00Z</time>
      </trkpt>
      <trkpt lat="62.832993" lon="14.4451944">
        <ele>344.4</ele>
        <time>2012-07-25T17:38:06Z</time>
      </trkpt>
      <trkpt lat="62.8331747" lon="14.4457178">
        <ele>339</ele>
        <time>2012-07-25T17:38:10Z</time>
      </trkpt>
      <trkpt lat="62.8332318" lon="14.4458483">
        <ele>337.4</ele>
        <time>2012-07-25T17:38:11Z</time>
      </trkpt>
      <trkpt lat="62.8336156" lon="14.4465664">
        <ele>335</ele>
        <time>2012-07-25T17:38:15Z</time>
      </trkpt>
      <trkpt lat="62.8338457" lon="14.4469683">
        <ele>332.4</ele>
        <time>2012-07-25T17:38:19Z</time>
      </trkpt>
      <trkpt lat="62.8341816" lon="14.4475305">
        <ele>331.4</ele>
        <time>2012-07-25T17:38:24Z</time>
      </trkpt>
      <trkpt lat="62.8344965" lon="14.4481323">
        <ele>329.8</ele>
        <time>2012-07-25T17:38:29Z</time>
      </trkpt>
      <trkpt lat="62.834679" lon="14.4484922">
        <ele>328.8</ele>
        <time>2012-07-25T17:38:32Z</time>
      </trkpt>
      <trkpt lat="62.8347833" lon="14.4487626">
        <ele>327.6</ele>
        <time>2012-07-25T17:38:34Z</time>
      </trkpt>
      <trkpt lat="62.8350345" lon="14.4494251">
        <ele>324.6</ele>
        <time>2012-07-25T17:38:39Z</time>
      </trkpt>
      <trkpt lat="62.8351214" lon="14.4497071">
        <ele>324.4</ele>
        <time>2012-07-25T17:38:40Z</time>
      </trkpt>
      <trkpt lat="62.8352626" lon="14.4501327">
        <ele>322.2</ele>
        <time>2012-07-25T17:38:44Z</time>
      </trkpt>
      <trkpt lat="62.8355033" lon="14.4508368">
        <ele>320.4</ele>
        <time>2012-07-25T17:38:50Z</time>
      </trkpt>
      <trkpt lat="62.8355686" lon="14.451031">
        <ele>320.2</ele>
        <time>2012-07-25T17:38:51Z</time>
      </trkpt>
      <trkpt lat="62.8356097" lon="14.4512251">
        <ele>319.4</ele>
        <time>2012-07-25T17:38:54Z</time>
      </trkpt>
      <trkpt lat="62.835531" lon="14.4515484">
        <ele>317.8</ele>
        <time>2012-07-25T17:38:58Z</time>
      </trkpt>
      <trkpt lat="62.8352648" lon="14.4521291">
        <ele>316.2</ele>
        <time>2012-07-25T17:39:05Z</time>
      </trkpt>
      <trkpt lat="62.8349946" lon="14.4527507">
        <ele>316</ele>
        <time>2012-07-25T17:39:13Z</time>
      </trkpt>
      <trkpt lat="62.8347288" lon="14.4533169">
        <ele>316.8</ele>
        <time>2012-07-25T17:39:20Z</time>
      </trkpt>
      <trkpt lat="62.8344038" lon="14.4540385">
        <ele>317.6</ele>
        <time>2012-07-25T17:39:27Z</time>
      </trkpt>
      <trkpt lat="62.8341584" lon="14.4545622">
        <ele>317</ele>
        <time>2012-07-25T17:39:34Z</time>
      </trkpt>
      <trkpt lat="62.8338621" lon="14.4551487">
        <ele>316.4</ele>
        <time>2012-07-25T17:39:42Z</time>
      </trkpt>
      <trkpt lat="62.83373" lon="14.4553962">
        <ele>316</ele>
        <time>2012-07-25T17:39:45Z</time>
      </trkpt>
      <trkpt lat="62.8336739" lon="14.4554765">
        <ele>315.8</ele>
        <time>2012-07-25T17:39:49Z</time>
      </trkpt>
      <trkpt lat="62.8337155" lon="14.4554822">
        <ele>316</ele>
        <time>2012-07-25T17:39:53Z</time>
      </trkpt>
      <trkpt lat="62.833758" lon="14.4554196">
        <ele>316.2</ele>
        <time>2012-07-25T17:39:55Z</time>
      </trkpt>
      <trkpt lat="62.8338529" lon="14.4552604">
        <ele>315.6</ele>
        <time>2012-07-25T17:39:57Z</time>
      </trkpt>
      <trkpt lat="62.8341069" lon="14.4547668">
        <ele>314.6</ele>
        <time>2012-07-25T17:40:03Z</time>
      </trkpt>
      <trkpt lat="62.8343559" lon="14.4542355">
        <ele>314.4</ele>
        <time>2012-07-25T17:40:10Z</time>
      </trkpt>
      <trkpt lat="62.8346415" lon="14.4536019">
        <ele>314.6</ele>
        <time>2012-07-25T17:40:17Z</time>
      </trkpt>
      <trkpt lat="62.8349225" lon="14.4529687">
        <ele>314.8</ele>
        <time>2012-07-25T17:40:24Z</time>
      </trkpt>
      <trkpt lat="62.8352158" lon="14.452339">
        <ele>315</ele>
        <time>2012-07-25T17:40:31Z</time>
      </trkpt>
      <trkpt lat="62.8355025" lon="14.4517024">
        <ele>315</ele>
        <time>2012-07-25T17:40:38Z</time>
      </trkpt>
      <trkpt lat="62.8356066" lon="14.4514019">
        <ele>315.2</ele>
        <time>2012-07-25T17:40:40Z</time>
      </trkpt>
      <trkpt lat="62.8356151" lon="14.4511484">
        <ele>315</ele>
        <time>2012-07-25T17:40:43Z</time>
      </trkpt>
      <trkpt lat="62.8355629" lon="14.4509159">
        <ele>315.4</ele>
        <time>2012-07-25T17:40:45Z</time>
      </trkpt>
      <trkpt lat="62.835283" lon="14.4501155">
        <ele>317.4</ele>
        <time>2012-07-25T17:40:51Z</time>
      </trkpt>
      <trkpt lat="62.8350473" lon="14.4494289">
        <ele>320.6</ele>
        <time>2012-07-25T17:40:58Z</time>
      </trkpt>
      <trkpt lat="62.8348624" lon="14.4488592">
        <ele>322.2</ele>
        <time>2012-07-25T17:41:06Z</time>
      </trkpt>
      <trkpt lat="62.8347456" lon="14.4485591">
        <ele>321.4</ele>
        <time>2012-07-25T17:41:09Z</time>
      </trkpt>
      <trkpt lat="62.834613" lon="14.4482856">
        <ele>321.8</ele>
        <time>2012-07-25T17:41:14Z</time>
      </trkpt>
      <trkpt lat="62.8343304" lon="14.4477638">
        <ele>321.4</ele>
        <time>2012-07-25T17:41:22Z</time>
      </trkpt>
      <trkpt lat="62.8340439" lon="14.4472497">
        <ele>322.6</ele>
        <time>2012-07-25T17:41:30Z</time>
      </trkpt>
      <trkpt lat="62.8337709" lon="14.4467958">
        <ele>324.4</ele>
        <time>2012-07-25T17:41:39Z</time>
      </trkpt>
      <trkpt lat="62.8334839" lon="14.4461934">
        <ele>326</ele>
        <time>2012-07-25T17:41:50Z</time>
      </trkpt>
      <trkpt lat="62.8332119" lon="14.4456809">
        <ele>329</ele>
        <time>2012-07-25T17:42:03Z</time>
      </trkpt>
      <trkpt lat="62.8330078" lon="14.4450101">
        <ele>337.6</ele>
        <time>2012-07-25T17:42:17Z</time>
      </trkpt>
      <trkpt lat="62.8330354" lon="14.4442797">
        <ele>347.2</ele>
        <time>2012-07-25T17:42:32Z</time>
      </trkpt>
      <trkpt lat="62.8331965" lon="14.4435644">
        <ele>353.4</ele>
        <time>2012-07-25T17:42:46Z</time>
      </trkpt>
      <trkpt lat="62.833394" lon="14.4428443">
        <ele>356</ele>
        <time>2012-07-25T17:42:56Z</time>
      </trkpt>
      <trkpt lat="62.8336656" lon="14.442212">
        <ele>358</ele>
        <time>2012-07-25T17:43:05Z</time>
      </trkpt>
      <trkpt lat="62.8339128" lon="14.4418759">
        <ele>359</ele>
        <time>2012-07-25T17:43:12Z</time>
      </trkpt>
      <trkpt lat="62.833992" lon="14.4417752">
        <ele>360</ele>
        <time>2012-07-25T17:43:14Z</time>
      </trkpt>
      <trkpt lat="62.834303" lon="14.4413748">
        <ele>359.4</ele>
        <time>2012-07-25T17:43:23Z</time>
      </trkpt>
      <trkpt lat="62.8345874" lon="14.4409571">
        <ele>360.4</ele>
        <time>2012-07-25T17:43:32Z</time>
      </trkpt>
      <trkpt lat="62.8348739" lon="14.4404106">
        <ele>364</ele>
        <time>2012-07-25T17:43:40Z</time>
      </trkpt>
      <trkpt lat="62.8350407" lon="14.4398197">
        <ele>367</ele>
        <time>2012-07-25T17:43:46Z</time>
      </trkpt>
      <trkpt lat="62.8350918" lon="14.4395764">
        <ele>369.4</ele>
        <time>2012-07-25T17:43:49Z</time>
      </trkpt>
      <trkpt lat="62.8352406" lon="14.4388719">
        <ele>374.8</ele>
        <time>2012-07-25T17:44:00Z</time>
      </trkpt>
      <trkpt lat="62.8353861" lon="14.4381585">
        <ele>376.4</ele>
        <time>2012-07-25T17:44:12Z</time>
      </trkpt>
      <trkpt lat="62.8355716" lon="14.4374013">
        <ele>382.4</ele>
        <time>2012-07-25T17:44:24Z</time>
      </trkpt>
      <trkpt lat="62.8357518" lon="14.4367128">
        <ele>386</ele>
        <time>2012-07-25T17:44:34Z</time>
      </trkpt>
      <trkpt lat="62.8359366" lon="14.4360579">
        <ele>389.8</ele>
        <time>2012-07-25T17:44:42Z</time>
      </trkpt>
      <trkpt lat="62.8361403" lon="14.4353638">
        <ele>391.8</ele>
        <time>2012-07-25T17:44:49Z</time>
      </trkpt>
      <trkpt lat="62.8363408" lon="14.434678">
        <ele>392.8</ele>
        <time>2012-07-25T17:44:55Z</time>
      </trkpt>
      <trkpt lat="62.8363408" lon="14.434678">
        <ele>393.2</ele>
        <time>2012-07-25T17:44:56Z</time>
      </trkpt>
      <trkpt lat="62.8363879" lon="14.4344875">
        <ele>393.8</ele>
        <time>2012-07-25T17:44:57Z</time>
      </trkpt>
      <trkpt lat="62.8365455" lon="14.4339078">
        <ele>395.4</ele>
        <time>2012-07-25T17:45:04Z</time>
      </trkpt>
      <trkpt lat="62.8366963" lon="14.433254">
        <ele>397.8</ele>
        <time>2012-07-25T17:45:14Z</time>
      </trkpt>
      <trkpt lat="62.8368257" lon="14.4326731">
        <ele>397.8</ele>
        <time>2012-07-25T17:45:21Z</time>
      </trkpt>
      <trkpt lat="62.8368788" lon="14.4323926">
        <ele>398.4</ele>
        <time>2012-07-25T17:45:24Z</time>
      </trkpt>
      <trkpt lat="62.8370655" lon="14.4316105">
        <ele>397.4</ele>
        <time>2012-07-25T17:45:31Z</time>
      </trkpt>
      <trkpt lat="62.8372709" lon="14.4308551">
        <ele>398.6</ele>
        <time>2012-07-25T17:45:38Z</time>
      </trkpt>
      <trkpt lat="62.8373046" lon="14.4307586">
        <ele>399</ele>
        <time>2012-07-25T17:45:39Z</time>
      </trkpt>
      <trkpt lat="62.8375432" lon="14.430196">
        <ele>403.2</ele>
        <time>2012-07-25T17:45:45Z</time>
      </trkpt>
      <trkpt lat="62.837789" lon="14.4296419">
        <ele>405.4</ele>
        <time>2012-07-25T17:45:52Z</time>
      </trkpt>
      <trkpt lat="62.8380832" lon="14.4290258">
        <ele>407.4</ele>
        <time>2012-07-25T17:45:58Z</time>
      </trkpt>
      <trkpt lat="62.8383629" lon="14.4285608">
        <ele>410.8</ele>
        <time>2012-07-25T17:46:03Z</time>
      </trkpt>
      <trkpt lat="62.8384014" lon="14.428515">
        <ele>411.6</ele>
        <time>2012-07-25T17:46:05Z</time>
      </trkpt>
      <trkpt lat="62.8385455" lon="14.4283146">
        <ele>414</ele>
        <time>2012-07-25T17:46:09Z</time>
      </trkpt>
      <trkpt lat="62.8386976" lon="14.4279535">
        <ele>414</ele>
        <time>2012-07-25T17:46:14Z</time>
      </trkpt>
      <trkpt lat="62.8386944" lon="14.4276817">
        <ele>412.6</ele>
        <time>2012-07-25T17:46:18Z</time>
      </trkpt>
      <trkpt lat="62.8385702" lon="14.4274854">
        <ele>412.8</ele>
        <time>2012-07-25T17:46:21Z</time>
      </trkpt>
      <trkpt lat="62.8384973" lon="14.4274848">
        <ele>413.4</ele>
        <time>2012-07-25T17:46:23Z</time>
      </trkpt>
      <trkpt lat="62.8382146" lon="14.4278195">
        <ele>416</ele>
        <time>2012-07-25T17:46:33Z</time>
      </trkpt>
      <trkpt lat="62.8379576" lon="14.4281734">
        <ele>411.2</ele>
        <time>2012-07-25T17:46:44Z</time>
      </trkpt>
      <trkpt lat="62.8376021" lon="14.4285945">
        <ele>412.6</ele>
        <time>2012-07-25T17:46:55Z</time>
      </trkpt>
      <trkpt lat="62.8372355" lon="14.428846">
        <ele>418.2</ele>
        <time>2012-07-25T17:47:09Z</time>
      </trkpt>
      <trkpt lat="62.8368557" lon="14.4290556">
        <ele>427.8</ele>
        <time>2012-07-25T17:47:23Z</time>
      </trkpt>
      <trkpt lat="62.8364713" lon="14.4292927">
        <ele>439.6</ele>
        <time>2012-07-25T17:47:33Z</time>
      </trkpt>
      <trkpt lat="62.8360926" lon="14.4294363">
        <ele>437</ele>
        <time>2012-07-25T17:47:44Z</time>
      </trkpt>
      <trkpt lat="62.8357709" lon="14.4295792">
        <ele>432.8</ele>
        <time>2012-07-25T17:47:55Z</time>
      </trkpt>
      <trkpt lat="62.8353878" lon="14.4299062">
        <ele>435.2</ele>
        <time>2012-07-25T17:48:07Z</time>
      </trkpt>
      <trkpt lat="62.8350415" lon="14.430248">
        <ele>446.4</ele>
        <time>2012-07-25T17:48:17Z</time>
      </trkpt>
      <trkpt lat="62.8347271" lon="14.4303687">
        <ele>452.6</ele>
        <time>2012-07-25T17:48:28Z</time>
      </trkpt>
      <trkpt lat="62.8343537" lon="14.4304189">
        <ele>453</ele>
        <time>2012-07-25T17:48:40Z</time>
      </trkpt>
      <trkpt lat="62.8341513" lon="14.4304369">
        <ele>453.6</ele>
        <time>2012-07-25T17:48:45Z</time>
      </trkpt>
      <trkpt lat="62.8339739" lon="14.4304789">
        <ele>455.8</ele>
        <time>2012-07-25T17:48:49Z</time>
      </trkpt>
      <trkpt lat="62.833614" lon="14.4304494">
        <ele>464</ele>
        <time>2012-07-25T17:49:01Z</time>
      </trkpt>
      <trkpt lat="62.833614" lon="14.4304494">
        <ele>464.2</ele>
        <time>2012-07-25T17:49:02Z</time>
      </trkpt>
      <trkpt lat="62.8335428" lon="14.4303558">
        <ele>465</ele>
        <time>2012-07-25T17:49:03Z</time>
      </trkpt>
      <trkpt lat="62.8334466" lon="14.4301123">
        <ele>468</ele>
        <time>2012-07-25T17:49:08Z</time>
      </trkpt>
      <trkpt lat="62.8333921" lon="14.4298463">
        <ele>469.2</ele>
        <time>2012-07-25T17:49:12Z</time>
      </trkpt>
      <trkpt lat="62.8332151" lon="14.4291813">
        <ele>475</ele>
        <time>2012-07-25T17:49:24Z</time>
      </trkpt>
      <trkpt lat="62.8328879" lon="14.4289426">
        <ele>477.4</ele>
        <time>2012-07-25T17:49:37Z</time>
      </trkpt>
      <trkpt lat="62.8325146" lon="14.4290151">
        <ele>475.4</ele>
        <time>2012-07-25T17:49:50Z</time>
      </trkpt>
      <trkpt lat="62.8321331" lon="14.4291323">
        <ele>478.4</ele>
        <time>2012-07-25T17:50:00Z</time>
      </trkpt>
      <trkpt lat="62.8318149" lon="14.4294332">
        <ele>488.4</ele>
        <time>2012-07-25T17:50:10Z</time>
      </trkpt>
      <trkpt lat="62.8315413" lon="14.4298787">
        <ele>492.6</ele>
        <time>2012-07-25T17:50:18Z</time>
      </trkpt>
      <trkpt lat="62.831506" lon="14.4299251">
        <ele>492.4</ele>
        <time>2012-07-25T17:50:19Z</time>
      </trkpt>
      <trkpt lat="62.8312078" lon="14.4304122">
        <ele>493.2</ele>
        <time>2012-07-25T17:50:27Z</time>
      </trkpt>
      <trkpt lat="62.8312078" lon="14.4304122">
        <ele>493.2</ele>
        <time>2012-07-25T17:50:28Z</time>
      </trkpt>
      <trkpt lat="62.8309281" lon="14.430872">
        <ele>498.6</ele>
        <time>2012-07-25T17:50:39Z</time>
      </trkpt>
      <trkpt lat="62.8305909" lon="14.4312955">
        <ele>501.2</ele>
        <time>2012-07-25T17:50:51Z</time>
      </trkpt>
      <trkpt lat="62.8303033" lon="14.4316813">
        <ele>507</ele>
        <time>2012-07-25T17:51:05Z</time>
      </trkpt>
      <trkpt lat="62.8302571" lon="14.4317624">
        <ele>508.6</ele>
        <time>2012-07-25T17:51:06Z</time>
      </trkpt>
      <trkpt lat="62.8299998" lon="14.4319912">
        <ele>513</ele>
        <time>2012-07-25T17:51:18Z</time>
      </trkpt>
      <trkpt lat="62.8296433" lon="14.4320826">
        <ele>516</ele>
        <time>2012-07-25T17:51:31Z</time>
      </trkpt>
      <trkpt lat="62.8294031" lon="14.4315227">
        <ele>523.2</ele>
        <time>2012-07-25T17:51:42Z</time>
      </trkpt>
      <trkpt lat="62.829229" lon="14.4308832">
        <ele>528.6</ele>
        <time>2012-07-25T17:51:55Z</time>
      </trkpt>
      <trkpt lat="62.8291134" lon="14.430548">
        <ele>530</ele>
        <time>2012-07-25T17:51:59Z</time>
      </trkpt>
      <trkpt lat="62.828983" lon="14.4302294">
        <ele>532.6</ele>
        <time>2012-07-25T17:52:05Z</time>
      </trkpt>
      <trkpt lat="62.8289812" lon="14.4300295">
        <ele>534.4</ele>
        <time>2012-07-25T17:52:08Z</time>
      </trkpt>
      <trkpt lat="62.8292057" lon="14.4296415">
        <ele>536</ele>
        <time>2012-07-25T17:52:17Z</time>
      </trkpt>
      <trkpt lat="62.8292718" lon="14.4294571">
        <ele>536.6</ele>
        <time>2012-07-25T17:52:20Z</time>
      </trkpt>
      <trkpt lat="62.8292705" lon="14.4292675">
        <ele>537.6</ele>
        <time>2012-07-25T17:52:22Z</time>
      </trkpt>
      <trkpt lat="62.8292016" lon="14.4291368">
        <ele>538.6</ele>
        <time>2012-07-25T17:52:25Z</time>
      </trkpt>
      <trkpt lat="62.8291523" lon="14.4291418">
        <ele>538.8</ele>
        <time>2012-07-25T17:52:26Z</time>
      </trkpt>
      <trkpt lat="62.8290307" lon="14.4293192">
        <ele>539.2</ele>
        <time>2012-07-25T17:52:29Z</time>
      </trkpt>
      <trkpt lat="62.8288732" lon="14.4297344">
        <ele>538.6</ele>
        <time>2012-07-25T17:52:34Z</time>
      </trkpt>
      <trkpt lat="62.8286177" lon="14.4303929">
        <ele>539.4</ele>
        <time>2012-07-25T17:52:41Z</time>
      </trkpt>
      <trkpt lat="62.8283907" lon="14.4309878">
        <ele>542.4</ele>
        <time>2012-07-25T17:52:48Z</time>
      </trkpt>
      <trkpt lat="62.828328" lon="14.431122">
        <ele>543.4</ele>
        <time>2012-07-25T17:52:50Z</time>
      </trkpt>
      <trkpt lat="62.8281822" lon="14.4313399">
        <ele>545.2</ele>
        <time>2012-07-25T17:52:56Z</time>
      </trkpt>
      <trkpt lat="62.828235" lon="14.4313195">
        <ele>546.6</ele>
        <time>2012-07-25T17:53:00Z</time>
      </trkpt>
      <trkpt lat="62.8282836" lon="14.4312522">
        <ele>547.2</ele>
        <time>2012-07-25T17:53:03Z</time>
      </trkpt>
      <trkpt lat="62.8283334" lon="14.4311932">
        <ele>549.8</ele>
        <time>2012-07-25T17:53:35Z</time>
      </trkpt>
      <trkpt lat="62.8285163" lon="14.4307862">
        <ele>544.4</ele>
        <time>2012-07-25T17:53:41Z</time>
      </trkpt>
      <trkpt lat="62.828754" lon="14.4301312">
        <ele>538.8</ele>
        <time>2012-07-25T17:53:46Z</time>
      </trkpt>
      <trkpt lat="62.828929" lon="14.4295891">
        <ele>538.2</ele>
        <time>2012-07-25T17:53:49Z</time>
      </trkpt>
      <trkpt lat="62.8289852" lon="14.4293201">
        <ele>538</ele>
        <time>2012-07-25T17:53:51Z</time>
      </trkpt>
      <trkpt lat="62.829018" lon="14.4291979">
        <ele>537.6</ele>
        <time>2012-07-25T17:53:53Z</time>
      </trkpt>
      <trkpt lat="62.8292031" lon="14.4290882">
        <ele>536.8</ele>
        <time>2012-07-25T17:53:56Z</time>
      </trkpt>
      <trkpt lat="62.8292652" lon="14.429155">
        <ele>536</ele>
        <time>2012-07-25T17:53:57Z</time>
      </trkpt>
      <trkpt lat="62.8292747" lon="14.4295565">
        <ele>537.6</ele>
        <time>2012-07-25T17:54:00Z</time>
      </trkpt>
      <trkpt lat="62.8292228" lon="14.4296339">
        <ele>537.4</ele>
        <time>2012-07-25T17:54:01Z</time>
      </trkpt>
      <trkpt lat="62.8290223" lon="14.429885">
        <ele>535.4</ele>
        <time>2012-07-25T17:54:03Z</time>
      </trkpt>
      <trkpt lat="62.8289681" lon="14.4300381">
        <ele>535</ele>
        <time>2012-07-25T17:54:05Z</time>
      </trkpt>
      <trkpt lat="62.8290695" lon="14.4305856">
        <ele>531.2</ele>
        <time>2012-07-25T17:54:08Z</time>
      </trkpt>
      <trkpt lat="62.8292715" lon="14.4312363">
        <ele>525.6</ele>
        <time>2012-07-25T17:54:12Z</time>
      </trkpt>
      <trkpt lat="62.8293098" lon="14.4314102">
        <ele>524.4</ele>
        <time>2012-07-25T17:54:13Z</time>
      </trkpt>
      <trkpt lat="62.8295019" lon="14.4320297">
        <ele>520.4</ele>
        <time>2012-07-25T17:54:17Z</time>
      </trkpt>
      <trkpt lat="62.8295672" lon="14.432147">
        <ele>519.4</ele>
        <time>2012-07-25T17:54:18Z</time>
      </trkpt>
      <trkpt lat="62.829642" lon="14.432215">
        <ele>518</ele>
        <time>2012-07-25T17:54:20Z</time>
      </trkpt>
      <trkpt lat="62.82989" lon="14.4321417">
        <ele>518.2</ele>
        <time>2012-07-25T17:54:23Z</time>
      </trkpt>
      <trkpt lat="62.8301246" lon="14.4318984">
        <ele>516.2</ele>
        <time>2012-07-25T17:54:25Z</time>
      </trkpt>
      <trkpt lat="62.8303657" lon="14.4315902">
        <ele>512.8</ele>
        <time>2012-07-25T17:54:28Z</time>
      </trkpt>
      <trkpt lat="62.8306856" lon="14.4311959">
        <ele>510.8</ele>
        <time>2012-07-25T17:54:32Z</time>
      </trkpt>
      <trkpt lat="62.8310189" lon="14.4307829">
        <ele>505.8</ele>
        <time>2012-07-25T17:54:36Z</time>
      </trkpt>
      <trkpt lat="62.8313534" lon="14.4302636">
        <ele>501</ele>
        <time>2012-07-25T17:54:40Z</time>
      </trkpt>
      <trkpt lat="62.8317014" lon="14.4297213">
        <ele>496.8</ele>
        <time>2012-07-25T17:54:44Z</time>
      </trkpt>
      <trkpt lat="62.8319881" lon="14.4293882">
        <ele>493.8</ele>
        <time>2012-07-25T17:54:47Z</time>
      </trkpt>
      <trkpt lat="62.832087" lon="14.4293263">
        <ele>493.4</ele>
        <time>2012-07-25T17:54:48Z</time>
      </trkpt>
      <trkpt lat="62.8323836" lon="14.4292009">
        <ele>489.8</ele>
        <time>2012-07-25T17:54:52Z</time>
      </trkpt>
      <trkpt lat="62.8328769" lon="14.4290132">
        <ele>484.8</ele>
        <time>2012-07-25T17:54:56Z</time>
      </trkpt>
      <trkpt lat="62.833054" lon="14.4290108">
        <ele>482</ele>
        <time>2012-07-25T17:54:58Z</time>
      </trkpt>
      <trkpt lat="62.8332478" lon="14.4293218">
        <ele>476</ele>
        <time>2012-07-25T17:55:01Z</time>
      </trkpt>
      <trkpt lat="62.8333242" lon="14.4297259">
        <ele>472.4</ele>
        <time>2012-07-25T17:55:03Z</time>
      </trkpt>
      <trkpt lat="62.8333809" lon="14.4302055">
        <ele>469.2</ele>
        <time>2012-07-25T17:55:05Z</time>
      </trkpt>
      <trkpt lat="62.8334891" lon="14.4305612">
        <ele>465.8</ele>
        <time>2012-07-25T17:55:07Z</time>
      </trkpt>
      <trkpt lat="62.8336623" lon="14.4306731">
        <ele>464</ele>
        <time>2012-07-25T17:55:09Z</time>
      </trkpt>
      <trkpt lat="62.8340181" lon="14.4306026">
        <ele>460</ele>
        <time>2012-07-25T17:55:12Z</time>
      </trkpt>
      <trkpt lat="62.8341305" lon="14.4305726">
        <ele>459.4</ele>
        <time>2012-07-25T17:55:13Z</time>
      </trkpt>
      <trkpt lat="62.8346241" lon="14.4304722">
        <ele>454.8</ele>
        <time>2012-07-25T17:55:17Z</time>
      </trkpt>
      <trkpt lat="62.8349747" lon="14.4303863">
        <ele>451.4</ele>
        <time>2012-07-25T17:55:21Z</time>
      </trkpt>
      <trkpt lat="62.8351842" lon="14.430262">
        <ele>452.4</ele>
        <time>2012-07-25T17:55:22Z</time>
      </trkpt>
      <trkpt lat="62.8354457" lon="14.4299859">
        <ele>448.4</ele>
        <time>2012-07-25T17:55:25Z</time>
      </trkpt>
      <trkpt lat="62.8356975" lon="14.429785">
        <ele>442.8</ele>
        <time>2012-07-25T17:55:29Z</time>
      </trkpt>
      <trkpt lat="62.8358684" lon="14.429673">
        <ele>439.6</ele>
        <time>2012-07-25T17:55:30Z</time>
      </trkpt>
      <trkpt lat="62.836149" lon="14.4295285">
        <ele>437.6</ele>
        <time>2012-07-25T17:55:33Z</time>
      </trkpt>
      <trkpt lat="62.8365286" lon="14.4293383">
        <ele>433.2</ele>
        <time>2012-07-25T17:55:37Z</time>
      </trkpt>
      <trkpt lat="62.8368925" lon="14.4291879">
        <ele>429.8</ele>
        <time>2012-07-25T17:55:41Z</time>
      </trkpt>
      <trkpt lat="62.8373255" lon="14.4289553">
        <ele>424.4</ele>
        <time>2012-07-25T17:55:46Z</time>
      </trkpt>
      <trkpt lat="62.8375203" lon="14.4288001">
        <ele>423.6</ele>
        <time>2012-07-25T17:55:48Z</time>
      </trkpt>
      <trkpt lat="62.8377223" lon="14.4285832">
        <ele>422.2</ele>
        <time>2012-07-25T17:55:50Z</time>
      </trkpt>
      <trkpt lat="62.8380114" lon="14.4282055">
        <ele>419.6</ele>
        <time>2012-07-25T17:55:54Z</time>
      </trkpt>
      <trkpt lat="62.8383185" lon="14.4277527">
        <ele>414.4</ele>
        <time>2012-07-25T17:55:58Z</time>
      </trkpt>
      <trkpt lat="62.8384501" lon="14.4275823">
        <ele>412.6</ele>
        <time>2012-07-25T17:56:00Z</time>
      </trkpt>
      <trkpt lat="62.8386899" lon="14.427691">
        <ele>409.2</ele>
        <time>2012-07-25T17:56:03Z</time>
      </trkpt>
      <trkpt lat="62.8385285" lon="14.4282449">
        <ele>404</ele>
        <time>2012-07-25T17:56:08Z</time>
      </trkpt>
      <trkpt lat="62.8383842" lon="14.4284712">
        <ele>404.2</ele>
        <time>2012-07-25T17:56:09Z</time>
      </trkpt>
      <trkpt lat="62.8382203" lon="14.428711">
        <ele>403.6</ele>
        <time>2012-07-25T17:56:12Z</time>
      </trkpt>
      <trkpt lat="62.8378672" lon="14.4293837">
        <ele>403.2</ele>
        <time>2012-07-25T17:56:16Z</time>
      </trkpt>
      <trkpt lat="62.8375907" lon="14.4300594">
        <ele>404</ele>
        <time>2012-07-25T17:56:21Z</time>
      </trkpt>
      <trkpt lat="62.8373603" lon="14.4305695">
        <ele>402</ele>
        <time>2012-07-25T17:56:25Z</time>
      </trkpt>
      <trkpt lat="62.8373603" lon="14.4305695">
        <ele>401.6</ele>
        <time>2012-07-25T17:56:26Z</time>
      </trkpt>
      <trkpt lat="62.8370939" lon="14.4314228">
        <ele>401.4</ele>
        <time>2012-07-25T17:56:30Z</time>
      </trkpt>
      <trkpt lat="62.8369105" lon="14.432186">
        <ele>402</ele>
        <time>2012-07-25T17:56:34Z</time>
      </trkpt>
      <trkpt lat="62.8367867" lon="14.4329218">
        <ele>401.8</ele>
        <time>2012-07-25T17:56:38Z</time>
      </trkpt>
      <trkpt lat="62.8367153" lon="14.4332957">
        <ele>400.4</ele>
        <time>2012-07-25T17:56:40Z</time>
      </trkpt>
      <trkpt lat="62.8366217" lon="14.433656">
        <ele>399.2</ele>
        <time>2012-07-25T17:56:42Z</time>
      </trkpt>
      <trkpt lat="62.8364465" lon="14.4342782">
        <ele>395.2</ele>
        <time>2012-07-25T17:56:46Z</time>
      </trkpt>
      <trkpt lat="62.8361314" lon="14.4353116">
        <ele>389.8</ele>
        <time>2012-07-25T17:56:50Z</time>
      </trkpt>
      <trkpt lat="62.8359305" lon="14.4361367">
        <ele>388.6</ele>
        <time>2012-07-25T17:56:54Z</time>
      </trkpt>
      <trkpt lat="62.8357134" lon="14.4368011">
        <ele>387.2</ele>
        <time>2012-07-25T17:56:58Z</time>
      </trkpt>
      <trkpt lat="62.8355243" lon="14.4375043">
        <ele>384.6</ele>
        <time>2012-07-25T17:57:02Z</time>
      </trkpt>
      <trkpt lat="62.8353426" lon="14.4383134">
        <ele>381.4</ele>
        <time>2012-07-25T17:57:06Z</time>
      </trkpt>
      <trkpt lat="62.8352277" lon="14.4389921">
        <ele>377</ele>
        <time>2012-07-25T17:57:10Z</time>
      </trkpt>
      <trkpt lat="62.8349676" lon="14.4401221">
        <ele>371.8</ele>
        <time>2012-07-25T17:57:14Z</time>
      </trkpt>
      <trkpt lat="62.834811" lon="14.4405098">
        <ele>369.6</ele>
        <time>2012-07-25T17:57:16Z</time>
      </trkpt>
      <trkpt lat="62.8346282" lon="14.4408532">
        <ele>367.8</ele>
        <time>2012-07-25T17:57:18Z</time>
      </trkpt>
      <trkpt lat="62.8345293" lon="14.4409996">
        <ele>366.2</ele>
        <time>2012-07-25T17:57:20Z</time>
      </trkpt>
      <trkpt lat="62.8342425" lon="14.4413831">
        <ele>365</ele>
        <time>2012-07-25T17:57:22Z</time>
      </trkpt>
      <trkpt lat="62.833859" lon="14.4418684">
        <ele>364</ele>
        <time>2012-07-25T17:57:26Z</time>
      </trkpt>
      <trkpt lat="62.8336154" lon="14.4422209">
        <ele>362.8</ele>
        <time>2012-07-25T17:57:30Z</time>
      </trkpt>
      <trkpt lat="62.8334781" lon="14.442512">
        <ele>362.4</ele>
        <time>2012-07-25T17:57:31Z</time>
      </trkpt>
      <trkpt lat="62.8333155" lon="14.4430317">
        <ele>360.2</ele>
        <time>2012-07-25T17:57:34Z</time>
      </trkpt>
      <trkpt lat="62.8331276" lon="14.443708">
        <ele>357.6</ele>
        <time>2012-07-25T17:57:38Z</time>
      </trkpt>
      <trkpt lat="62.832992" lon="14.444347">
        <ele>352.8</ele>
        <time>2012-07-25T17:57:42Z</time>
      </trkpt>
      <trkpt lat="62.8329751" lon="14.4445145">
        <ele>351.8</ele>
        <time>2012-07-25T17:57:43Z</time>
      </trkpt>
      <trkpt lat="62.832967" lon="14.4446795">
        <ele>349.6</ele>
        <time>2012-07-25T17:57:45Z</time>
      </trkpt>
      <trkpt lat="62.8330174" lon="14.445278">
        <ele>346.6</ele>
        <time>2012-07-25T17:57:48Z</time>
      </trkpt>
      <trkpt lat="62.8330557" lon="14.4454266">
        <ele>343.8</ele>
        <time>2012-07-25T17:57:50Z</time>
      </trkpt>
      <trkpt lat="62.833171" lon="14.4457132">
        <ele>342</ele>
        <time>2012-07-25T17:57:51Z</time>
      </trkpt>
      <trkpt lat="62.8333244" lon="14.4460147">
        <ele>339.4</ele>
        <time>2012-07-25T17:57:53Z</time>
      </trkpt>
      <trkpt lat="62.8336781" lon="14.4467094">
        <ele>333.6</ele>
        <time>2012-07-25T17:57:57Z</time>
      </trkpt>
      <trkpt lat="62.8340021" lon="14.4473091">
        <ele>327.6</ele>
        <time>2012-07-25T17:58:01Z</time>
      </trkpt>
      <trkpt lat="62.834325" lon="14.4478432">
        <ele>324.2</ele>
        <time>2012-07-25T17:58:05Z</time>
      </trkpt>
      <trkpt lat="62.8346048" lon="14.4483834">
        <ele>323.6</ele>
        <time>2012-07-25T17:58:09Z</time>
      </trkpt>
      <trkpt lat="62.8348291" lon="14.4488904">
        <ele>322.4</ele>
        <time>2012-07-25T17:58:14Z</time>
      </trkpt>
      <trkpt lat="62.8349874" lon="14.4493086">
        <ele>321.4</ele>
        <time>2012-07-25T17:58:16Z</time>
      </trkpt>
      <trkpt lat="62.8351334" lon="14.4497322">
        <ele>319.2</ele>
        <time>2012-07-25T17:58:19Z</time>
      </trkpt>
      <trkpt lat="62.8353664" lon="14.4504614">
        <ele>316</ele>
        <time>2012-07-25T17:58:24Z</time>
      </trkpt>
      <trkpt lat="62.8356025" lon="14.4511475">
        <ele>315.2</ele>
        <time>2012-07-25T17:58:30Z</time>
      </trkpt>
      <trkpt lat="62.8355934" lon="14.451445">
        <ele>314.8</ele>
        <time>2012-07-25T17:58:34Z</time>
      </trkpt>
      <trkpt lat="62.8355167" lon="14.4516273">
        <ele>314.8</ele>
        <time>2012-07-25T17:58:35Z</time>
      </trkpt>
      <trkpt lat="62.8354178" lon="14.451836">
        <ele>314.6</ele>
        <time>2012-07-25T17:58:37Z</time>
      </trkpt>
      <trkpt lat="62.8351306" lon="14.4524552">
        <ele>313.6</ele>
        <time>2012-07-25T17:58:42Z</time>
      </trkpt>
      <trkpt lat="62.8348384" lon="14.453106">
        <ele>312.6</ele>
        <time>2012-07-25T17:58:47Z</time>
      </trkpt>
      <trkpt lat="62.834539" lon="14.4537652">
        <ele>311.8</ele>
        <time>2012-07-25T17:58:52Z</time>
      </trkpt>
      <trkpt lat="62.834306" lon="14.4542816">
        <ele>311.4</ele>
        <time>2012-07-25T17:58:57Z</time>
      </trkpt>
      <trkpt lat="62.8339678" lon="14.4549684">
        <ele>311</ele>
        <time>2012-07-25T17:59:02Z</time>
      </trkpt>
      <trkpt lat="62.8337172" lon="14.4554339">
        <ele>311</ele>
        <time>2012-07-25T17:59:07Z</time>
      </trkpt>
      <trkpt lat="62.8332955" lon="14.4561127">
        <ele>309.8</ele>
        <time>2012-07-25T17:59:12Z</time>
      </trkpt>
      <trkpt lat="62.8329557" lon="14.4565697">
        <ele>308.8</ele>
        <time>2012-07-25T17:59:16Z</time>
      </trkpt>
      <trkpt lat="62.8325578" lon="14.4570087">
        <ele>307.6</ele>
        <time>2012-07-25T17:59:20Z</time>
      </trkpt>
      <trkpt lat="62.8321563" lon="14.4574046">
        <ele>307.4</ele>
        <time>2012-07-25T17:59:24Z</time>
      </trkpt>
      <trkpt lat="62.8317543" lon="14.4577337">
        <ele>307.6</ele>
        <time>2012-07-25T17:59:28Z</time>
      </trkpt>
      <trkpt lat="62.8316532" lon="14.4578013">
        <ele>307.6</ele>
        <time>2012-07-25T17:59:29Z</time>
      </trkpt>
      <trkpt lat="62.8314503" lon="14.4579081">
        <ele>307.6</ele>
        <time>2012-07-25T17:59:32Z</time>
      </trkpt>
      <trkpt lat="62.8310528" lon="14.4580957">
        <ele>307.8</ele>
        <time>2012-07-25T17:59:36Z</time>
      </trkpt>
      <trkpt lat="62.8305526" lon="14.4583013">
        <ele>307.8</ele>
        <time>2012-07-25T17:59:40Z</time>
      </trkpt>
      <trkpt lat="62.8302406" lon="14.4584143">
        <ele>307.2</ele>
        <time>2012-07-25T17:59:44Z</time>
      </trkpt>
      <trkpt lat="62.8296989" lon="14.4586151">
        <ele>306.8</ele>
        <time>2012-07-25T17:59:48Z</time>
      </trkpt>
      <trkpt lat="62.8292654" lon="14.45878">
        <ele>306.6</ele>
        <time>2012-07-25T17:59:52Z</time>
      </trkpt>
      <trkpt lat="62.8288556" lon="14.4589368">
        <ele>306.8</ele>
        <time>2012-07-25T17:59:56Z</time>
      </trkpt>
      <trkpt lat="62.8285726" lon="14.4590487">
        <ele>307.4</ele>
        <time>2012-07-25T18:00:00Z</time>
      </trkpt>
      <trkpt lat="62.8280468" lon="14.459243">
        <ele>309.4</ele>
        <time>2012-07-25T18:00:05Z</time>
      </trkpt>
      <trkpt lat="62.8277024" lon="14.4593719">
        <ele>312.4</ele>
        <time>2012-07-25T18:00:10Z</time>
      </trkpt>
      <trkpt lat="62.8271974" lon="14.4595631">
        <ele>315.2</ele>
        <time>2012-07-25T18:00:15Z</time>
      </trkpt>
      <trkpt lat="62.8267897" lon="14.4597134">
        <ele>316</ele>
        <time>2012-07-25T18:00:20Z</time>
      </trkpt>
      <trkpt lat="62.8263844" lon="14.459873">
        <ele>316.6</ele>
        <time>2012-07-25T18:00:25Z</time>
      </trkpt>
      <trkpt lat="62.826005" lon="14.4600159">
        <ele>317.8</ele>
        <time>2012-07-25T18:00:30Z</time>
      </trkpt>
      <trkpt lat="62.8256127" lon="14.460165">
        <ele>319.4</ele>
        <time>2012-07-25T18:00:36Z</time>
      </trkpt>
      <trkpt lat="62.8251968" lon="14.4603074">
        <ele>320.6</ele>
        <time>2012-07-25T18:00:42Z</time>
      </trkpt>
      <trkpt lat="62.8247944" lon="14.4604702">
        <ele>322.8</ele>
        <time>2012-07-25T18:00:48Z</time>
      </trkpt>
      <trkpt lat="62.8244193" lon="14.4605882">
        <ele>325.4</ele>
        <time>2012-07-25T18:00:54Z</time>
      </trkpt>
      <trkpt lat="62.8240665" lon="14.460609">
        <ele>326.6</ele>
        <time>2012-07-25T18:01:00Z</time>
      </trkpt>
      <trkpt lat="62.8237056" lon="14.4606204">
        <ele>327.6</ele>
        <time>2012-07-25T18:01:06Z</time>
      </trkpt>
      <trkpt lat="62.8233168" lon="14.4605935">
        <ele>327</ele>
        <time>2012-07-25T18:01:12Z</time>
      </trkpt>
      <trkpt lat="62.8229381" lon="14.4605593">
        <ele>323.8</ele>
        <time>2012-07-25T18:01:17Z</time>
      </trkpt>
      <trkpt lat="62.8225617" lon="14.4605343">
        <ele>323</ele>
        <time>2012-07-25T18:01:22Z</time>
      </trkpt>
      <trkpt lat="62.8221586" lon="14.460513">
        <ele>323.4</ele>
        <time>2012-07-25T18:01:28Z</time>
      </trkpt>
      <trkpt lat="62.821741" lon="14.4604874">
        <ele>323.8</ele>
        <time>2012-07-25T18:01:34Z</time>
      </trkpt>
      <trkpt lat="62.8213562" lon="14.4604809">
        <ele>324.8</ele>
        <time>2012-07-25T18:01:40Z</time>
      </trkpt>
      <trkpt lat="62.8209731" lon="14.4604568">
        <ele>326.2</ele>
        <time>2012-07-25T18:01:46Z</time>
      </trkpt>
      <trkpt lat="62.8205532" lon="14.4603351">
        <ele>325.6</ele>
        <time>2012-07-25T18:01:52Z</time>
      </trkpt>
      <trkpt lat="62.8201799" lon="14.4601254">
        <ele>325.6</ele>
        <time>2012-07-25T18:01:57Z</time>
      </trkpt>
      <trkpt lat="62.8198249" lon="14.459892">
        <ele>326.6</ele>
        <time>2012-07-25T18:02:02Z</time>
      </trkpt>
      <trkpt lat="62.8194162" lon="14.4596456">
        <ele>327.8</ele>
        <time>2012-07-25T18:02:08Z</time>
      </trkpt>
      <trkpt lat="62.8190641" lon="14.4594037">
        <ele>329.8</ele>
        <time>2012-07-25T18:02:14Z</time>
      </trkpt>
      <trkpt lat="62.8187674" lon="14.4592165">
        <ele>332</ele>
        <time>2012-07-25T18:02:20Z</time>
      </trkpt>
      <trkpt lat="62.8183331" lon="14.4590006">
        <ele>333.8</ele>
        <time>2012-07-25T18:02:26Z</time>
      </trkpt>
      <trkpt lat="62.8179653" lon="14.4588902">
        <ele>335</ele>
        <time>2012-07-25T18:02:32Z</time>
      </trkpt>
      <trkpt lat="62.8175608" lon="14.4588255">
        <ele>335</ele>
        <time>2012-07-25T18:02:39Z</time>
      </trkpt>
      <trkpt lat="62.8171905" lon="14.4587966">
        <ele>334.6</ele>
        <time>2012-07-25T18:02:45Z</time>
      </trkpt>
      <trkpt lat="62.8167771" lon="14.4587805">
        <ele>333.8</ele>
        <time>2012-07-25T18:02:51Z</time>
      </trkpt>
      <trkpt lat="62.816405" lon="14.45875">
        <ele>333.4</ele>
        <time>2012-07-25T18:02:56Z</time>
      </trkpt>
      <trkpt lat="62.8160168" lon="14.4587251">
        <ele>333.2</ele>
        <time>2012-07-25T18:03:01Z</time>
      </trkpt>
      <trkpt lat="62.8156212" lon="14.4587042">
        <ele>333</ele>
        <time>2012-07-25T18:03:06Z</time>
      </trkpt>
      <trkpt lat="62.8152177" lon="14.4586808">
        <ele>333</ele>
        <time>2012-07-25T18:03:11Z</time>
      </trkpt>
      <trkpt lat="62.8148162" lon="14.4586544">
        <ele>332.2</ele>
        <time>2012-07-25T18:03:16Z</time>
      </trkpt>
      <trkpt lat="62.814456" lon="14.4585835">
        <ele>330.6</ele>
        <time>2012-07-25T18:03:20Z</time>
      </trkpt>
      <trkpt lat="62.8143626" lon="14.4585293">
        <ele>330</ele>
        <time>2012-07-25T18:03:21Z</time>
      </trkpt>
      <trkpt lat="62.8141064" lon="14.4581283">
        <ele>328.4</ele>
        <time>2012-07-25T18:03:24Z</time>
      </trkpt>
      <trkpt lat="62.8140523" lon="14.4579315">
        <ele>327.4</ele>
        <time>2012-07-25T18:03:26Z</time>
      </trkpt>
      <trkpt lat="62.8139892" lon="14.4574917">
        <ele>326.6</ele>
        <time>2012-07-25T18:03:27Z</time>
      </trkpt>
      <trkpt lat="62.8139693" lon="14.457249">
        <ele>326.2</ele>
        <time>2012-07-25T18:03:28Z</time>
      </trkpt>
      <trkpt lat="62.8139425" lon="14.4562846">
        <ele>325.2</ele>
        <time>2012-07-25T18:03:32Z</time>
      </trkpt>
      <trkpt lat="62.8139287" lon="14.4553875">
        <ele>324.8</ele>
        <time>2012-07-25T18:03:36Z</time>
      </trkpt>
      <trkpt lat="62.8139149" lon="14.4545383">
        <ele>325.2</ele>
        <time>2012-07-25T18:03:40Z</time>
      </trkpt>
      <trkpt lat="62.8139001" lon="14.4537236">
        <ele>324.8</ele>
        <time>2012-07-25T18:03:44Z</time>
      </trkpt>
      <trkpt lat="62.813885" lon="14.4528948">
        <ele>323.2</ele>
        <time>2012-07-25T18:03:48Z</time>
      </trkpt>
      <trkpt lat="62.8138725" lon="14.4520303">
        <ele>321.6</ele>
        <time>2012-07-25T18:03:52Z</time>
      </trkpt>
      <trkpt lat="62.8138509" lon="14.4513886">
        <ele>320.2</ele>
        <time>2012-07-25T18:03:56Z</time>
      </trkpt>
      <trkpt lat="62.8138388" lon="14.4502028">
        <ele>319.4</ele>
        <time>2012-07-25T18:04:01Z</time>
      </trkpt>
      <trkpt lat="62.8138234" lon="14.4493781">
        <ele>317.4</ele>
        <time>2012-07-25T18:04:05Z</time>
      </trkpt>
      <trkpt lat="62.8138135" lon="14.4485114">
        <ele>315.2</ele>
        <time>2012-07-25T18:04:09Z</time>
      </trkpt>
      <trkpt lat="62.8137978" lon="14.4478651">
        <ele>313.6</ele>
        <time>2012-07-25T18:04:12Z</time>
      </trkpt>
      <trkpt lat="62.8137666" lon="14.4476467">
        <ele>313</ele>
        <time>2012-07-25T18:04:13Z</time>
      </trkpt>
      <trkpt lat="62.8135197" lon="14.4469938">
        <ele>311</ele>
        <time>2012-07-25T18:04:17Z</time>
      </trkpt>
      <trkpt lat="62.8131707" lon="14.4463607">
        <ele>307.6</ele>
        <time>2012-07-25T18:04:21Z</time>
      </trkpt>
      <trkpt lat="62.812892" lon="14.4458541">
        <ele>305.4</ele>
        <time>2012-07-25T18:04:24Z</time>
      </trkpt>
      <trkpt lat="62.8126046" lon="14.4453475">
        <ele>304.4</ele>
        <time>2012-07-25T18:04:27Z</time>
      </trkpt>
      <trkpt lat="62.8122358" lon="14.4446909">
        <ele>302.8</ele>
        <time>2012-07-25T18:04:31Z</time>
      </trkpt>
      <trkpt lat="62.8118879" lon="14.4440505">
        <ele>301</ele>
        <time>2012-07-25T18:04:35Z</time>
      </trkpt>
      <trkpt lat="62.8115502" lon="14.443424">
        <ele>299.6</ele>
        <time>2012-07-25T18:04:39Z</time>
      </trkpt>
      <trkpt lat="62.8112436" lon="14.4428331">
        <ele>299</ele>
        <time>2012-07-25T18:04:43Z</time>
      </trkpt>
      <trkpt lat="62.8109411" lon="14.4422789">
        <ele>297.8</ele>
        <time>2012-07-25T18:04:47Z</time>
      </trkpt>
      <trkpt lat="62.8106527" lon="14.4417178">
        <ele>296.8</ele>
        <time>2012-07-25T18:04:51Z</time>
      </trkpt>
      <trkpt lat="62.8104135" lon="14.4411125">
        <ele>296.6</ele>
        <time>2012-07-25T18:04:55Z</time>
      </trkpt>
      <trkpt lat="62.8101575" lon="14.4403373">
        <ele>297.2</ele>
        <time>2012-07-25T18:05:00Z</time>
      </trkpt>
      <trkpt lat="62.8099616" lon="14.4396063">
        <ele>298.4</ele>
        <time>2012-07-25T18:05:05Z</time>
      </trkpt>
      <trkpt lat="62.8097447" lon="14.438924">
        <ele>299.8</ele>
        <time>2012-07-25T18:05:10Z</time>
      </trkpt>
      <trkpt lat="62.8094778" lon="14.4384008">
        <ele>300.6</ele>
        <time>2012-07-25T18:05:15Z</time>
      </trkpt>
      <trkpt lat="62.8092254" lon="14.4378533">
        <ele>302.4</ele>
        <time>2012-07-25T18:05:21Z</time>
      </trkpt>
      <trkpt lat="62.809291" lon="14.4373683">
        <ele>305.2</ele>
        <time>2012-07-25T18:05:26Z</time>
      </trkpt>
      <trkpt lat="62.809369" lon="14.4371853">
        <ele>305.6</ele>
        <time>2012-07-25T18:05:28Z</time>
      </trkpt>
      <trkpt lat="62.8096633" lon="14.4365424">
        <ele>307</ele>
        <time>2012-07-25T18:05:35Z</time>
      </trkpt>
      <trkpt lat="62.8099026" lon="14.4359428">
        <ele>307.8</ele>
        <time>2012-07-25T18:05:41Z</time>
      </trkpt>
      <trkpt lat="62.8101637" lon="14.4352612">
        <ele>310.6</ele>
        <time>2012-07-25T18:05:48Z</time>
      </trkpt>
      <trkpt lat="62.810198" lon="14.4351685">
        <ele>311.2</ele>
        <time>2012-07-25T18:05:49Z</time>
      </trkpt>
      <trkpt lat="62.8103722" lon="14.4346009">
        <ele>313</ele>
        <time>2012-07-25T18:05:55Z</time>
      </trkpt>
      <trkpt lat="62.8105511" lon="14.4338435">
        <ele>315</ele>
        <time>2012-07-25T18:06:02Z</time>
      </trkpt>
      <trkpt lat="62.8106333" lon="14.4334">
        <ele>317.4</ele>
        <time>2012-07-25T18:06:06Z</time>
      </trkpt>
      <trkpt lat="62.8106838" lon="14.4330318">
        <ele>318.4</ele>
        <time>2012-07-25T18:06:09Z</time>
      </trkpt>
      <trkpt lat="62.8107846" lon="14.4322805">
        <ele>320</ele>
        <time>2012-07-25T18:06:15Z</time>
      </trkpt>
      <trkpt lat="62.8108879" lon="14.4315078">
        <ele>320.2</ele>
        <time>2012-07-25T18:06:21Z</time>
      </trkpt>
      <trkpt lat="62.81102" lon="14.4306872">
        <ele>321.4</ele>
        <time>2012-07-25T18:06:28Z</time>
      </trkpt>
      <trkpt lat="62.8111591" lon="14.4299258">
        <ele>322.8</ele>
        <time>2012-07-25T18:06:35Z</time>
      </trkpt>
      <trkpt lat="62.8113081" lon="14.4291555">
        <ele>324.4</ele>
        <time>2012-07-25T18:06:42Z</time>
      </trkpt>
      <trkpt lat="62.8114545" lon="14.4283997">
        <ele>326</ele>
        <time>2012-07-25T18:06:49Z</time>
      </trkpt>
      <trkpt lat="62.8114891" lon="14.4281992">
        <ele>325.8</ele>
        <time>2012-07-25T18:06:51Z</time>
      </trkpt>
      <trkpt lat="62.8115969" lon="14.4276277">
        <ele>326</ele>
        <time>2012-07-25T18:06:57Z</time>
      </trkpt>
      <trkpt lat="62.8116908" lon="14.4271289">
        <ele>327.2</ele>
        <time>2012-07-25T18:07:02Z</time>
      </trkpt>
      <trkpt lat="62.8117551" lon="14.4268193">
        <ele>328.4</ele>
        <time>2012-07-25T18:07:05Z</time>
      </trkpt>
      <trkpt lat="62.8119181" lon="14.426003">
        <ele>330</ele>
        <time>2012-07-25T18:07:12Z</time>
      </trkpt>
      <trkpt lat="62.8120739" lon="14.4252034">
        <ele>331.8</ele>
        <time>2012-07-25T18:07:19Z</time>
      </trkpt>
      <trkpt lat="62.8122299" lon="14.4243991">
        <ele>333.4</ele>
        <time>2012-07-25T18:07:26Z</time>
      </trkpt>
      <trkpt lat="62.8123663" lon="14.4236773">
        <ele>334.4</ele>
        <time>2012-07-25T18:07:33Z</time>
      </trkpt>
      <trkpt lat="62.812517" lon="14.422929">
        <ele>335.8</ele>
        <time>2012-07-25T18:07:40Z</time>
      </trkpt>
      <trkpt lat="62.8126823" lon="14.4221069">
        <ele>337</ele>
        <time>2012-07-25T18:07:47Z</time>
      </trkpt>
      <trkpt lat="62.8128362" lon="14.4213019">
        <ele>337.4</ele>
        <time>2012-07-25T18:07:53Z</time>
      </trkpt>
      <trkpt lat="62.8130066" lon="14.4204341">
        <ele>337.2</ele>
        <time>2012-07-25T18:07:59Z</time>
      </trkpt>
      <trkpt lat="62.8131522" lon="14.4196852">
        <ele>337.2</ele>
        <time>2012-07-25T18:08:04Z</time>
      </trkpt>
      <trkpt lat="62.8133044" lon="14.4189138">
        <ele>337.2</ele>
        <time>2012-07-25T18:08:09Z</time>
      </trkpt>
      <trkpt lat="62.8134748" lon="14.4180494">
        <ele>337.2</ele>
        <time>2012-07-25T18:08:14Z</time>
      </trkpt>
      <trkpt lat="62.8136442" lon="14.4171942">
        <ele>337.6</ele>
        <time>2012-07-25T18:08:19Z</time>
      </trkpt>
      <trkpt lat="62.8138098" lon="14.416354">
        <ele>337.6</ele>
        <time>2012-07-25T18:08:24Z</time>
      </trkpt>
      <trkpt lat="62.8139752" lon="14.4155044">
        <ele>336.8</ele>
        <time>2012-07-25T18:08:29Z</time>
      </trkpt>
      <trkpt lat="62.8141171" lon="14.4147631">
        <ele>335.4</ele>
        <time>2012-07-25T18:08:33Z</time>
      </trkpt>
      <trkpt lat="62.8142658" lon="14.4139903">
        <ele>334.6</ele>
        <time>2012-07-25T18:08:37Z</time>
      </trkpt>
      <trkpt lat="62.8144383" lon="14.4131122">
        <ele>335.6</ele>
        <time>2012-07-25T18:08:42Z</time>
      </trkpt>
      <trkpt lat="62.8145833" lon="14.4123622">
        <ele>337.2</ele>
        <time>2012-07-25T18:08:47Z</time>
      </trkpt>
      <trkpt lat="62.8147386" lon="14.4115736">
        <ele>339</ele>
        <time>2012-07-25T18:08:52Z</time>
      </trkpt>
      <trkpt lat="62.8148873" lon="14.4108371">
        <ele>341.8</ele>
        <time>2012-07-25T18:08:57Z</time>
      </trkpt>
      <trkpt lat="62.8150309" lon="14.4100952">
        <ele>343.2</ele>
        <time>2012-07-25T18:09:03Z</time>
      </trkpt>
      <trkpt lat="62.8151665" lon="14.4093509">
        <ele>345.2</ele>
        <time>2012-07-25T18:09:09Z</time>
      </trkpt>
      <trkpt lat="62.8152796" lon="14.4085879">
        <ele>344.6</ele>
        <time>2012-07-25T18:09:15Z</time>
      </trkpt>
      <trkpt lat="62.8154033" lon="14.4078133">
        <ele>346.4</ele>
        <time>2012-07-25T18:09:21Z</time>
      </trkpt>
      <trkpt lat="62.8155204" lon="14.4070505">
        <ele>346.8</ele>
        <time>2012-07-25T18:09:27Z</time>
      </trkpt>
      <trkpt lat="62.8156468" lon="14.4062102">
        <ele>347.6</ele>
        <time>2012-07-25T18:09:34Z</time>
      </trkpt>
      <trkpt lat="62.8157908" lon="14.405412">
        <ele>350.2</ele>
        <time>2012-07-25T18:09:41Z</time>
      </trkpt>
      <trkpt lat="62.8158725" lon="14.4049608">
        <ele>351.4</ele>
        <time>2012-07-25T18:09:46Z</time>
      </trkpt>
      <trkpt lat="62.8158872" lon="14.404876">
        <ele>351.6</ele>
        <time>2012-07-25T18:09:47Z</time>
      </trkpt>
      <trkpt lat="62.81583" lon="14.4046723">
        <ele>352</ele>
        <time>2012-07-25T18:09:50Z</time>
      </trkpt>
    </trkseg>
  </trk>
</gpx>